<?xml version="1.0" encoding="UTF-8" standalone="no" ?>
<gpx xmlns="http://www.topografix.com/GPX/1/1" xmlns:xsi="http://www.w3.org/2001/XMLSchema-instance" xsi:schemaLocation="http://www.topografix.com/GPX/1/1 http://www.topografix.com/GPX/1/1/gpx.xsd" version="1.1" creator="VisuGPX - https://www.visugpx.com">
  <metadata>
    <name>GR65 Annonay - Le Puy en Velay</name>
  </metadata>
  <trk>
    <name><![CDATA[GR65 Chemin de St Jacques de Compostelle (2020)]]></name>
    <trkseg>
      <trkpt lat="45.29626" lon="4.57079">
        <ele>530.837</ele>
        <time>2019-03-29T20:01:50Z</time>
      </trkpt>
      <trkpt lat="45.29566" lon="4.56961">
        <ele>526.521</ele>
        <time>2019-03-29T20:02:10Z</time>
      </trkpt>
      <trkpt lat="45.2951" lon="4.5691">
        <ele>528.776</ele>
        <time>2019-03-29T20:02:30Z</time>
      </trkpt>
      <trkpt lat="45.29473" lon="4.56721">
        <ele>531.097</ele>
        <time>2019-03-29T20:02:50Z</time>
      </trkpt>
      <trkpt lat="45.29521" lon="4.56657">
        <ele>526.086</ele>
        <time>2019-03-29T20:03:10Z</time>
      </trkpt>
      <trkpt lat="45.29592" lon="4.56609">
        <ele>524.716</ele>
        <time>2019-03-29T20:03:30Z</time>
      </trkpt>
      <trkpt lat="45.29611" lon="4.56534">
        <ele>528.868</ele>
        <time>2019-03-29T20:03:50Z</time>
      </trkpt>
      <trkpt lat="45.29559" lon="4.56365">
        <ele>534.173</ele>
        <time>2019-03-29T20:04:10Z</time>
      </trkpt>
      <trkpt lat="45.29559" lon="4.56307">
        <ele>538.143</ele>
        <time>2019-03-29T20:04:30Z</time>
      </trkpt>
      <trkpt lat="45.2958" lon="4.56247">
        <ele>537.664</ele>
        <time>2019-03-29T20:04:50Z</time>
      </trkpt>
      <trkpt lat="45.29637" lon="4.56202">
        <ele>542.81</ele>
        <time>2019-03-29T20:05:10Z</time>
      </trkpt>
      <trkpt lat="45.2967" lon="4.56094">
        <ele>542.308</ele>
        <time>2019-03-29T20:05:30Z</time>
      </trkpt>
      <trkpt lat="45.29651" lon="4.5603">
        <ele>543.558</ele>
        <time>2019-03-29T20:05:50Z</time>
      </trkpt>
      <trkpt lat="45.29509" lon="4.55816">
        <ele>545.192</ele>
        <time>2019-03-29T20:06:10Z</time>
      </trkpt>
      <trkpt lat="45.29386" lon="4.55637">
        <ele>542.117</ele>
        <time>2019-03-29T20:06:30Z</time>
      </trkpt>
      <trkpt lat="45.29291" lon="4.55477">
        <ele>547.688</ele>
        <time>2019-03-29T20:06:50Z</time>
      </trkpt>
      <trkpt lat="45.29139" lon="4.55468">
        <ele>549.267</ele>
        <time>2019-03-29T20:07:10Z</time>
      </trkpt>
      <trkpt lat="45.29057" lon="4.55449">
        <ele>553.397</ele>
        <time>2019-03-29T20:07:30Z</time>
      </trkpt>
      <trkpt lat="45.28989" lon="4.55429">
        <ele>555.629</ele>
        <time>2019-03-29T20:07:50Z</time>
      </trkpt>
      <trkpt lat="45.28953" lon="4.55309">
        <ele>560.034</ele>
        <time>2019-03-29T20:08:10Z</time>
      </trkpt>
      <trkpt lat="45.28817" lon="4.55165">
        <ele>564.138</ele>
        <time>2019-03-29T20:08:30Z</time>
      </trkpt>
      <trkpt lat="45.28734" lon="4.55101">
        <ele>572.47</ele>
        <time>2019-03-29T20:08:50Z</time>
      </trkpt>
      <trkpt lat="45.28653" lon="4.55056">
        <ele>581.617</ele>
        <time>2019-03-29T20:09:10Z</time>
      </trkpt>
      <trkpt lat="45.28583" lon="4.55">
        <ele>590.008</ele>
        <time>2019-03-29T20:09:30Z</time>
      </trkpt>
      <trkpt lat="45.28538" lon="4.54865">
        <ele>606.937</ele>
        <time>2019-03-29T20:09:50Z</time>
      </trkpt>
      <trkpt lat="45.2858" lon="4.54805">
        <ele>600.891</ele>
        <time>2019-03-29T20:10:10Z</time>
      </trkpt>
      <trkpt lat="45.28577" lon="4.5473">
        <ele>602.796</ele>
        <time>2019-03-29T20:10:30Z</time>
      </trkpt>
      <trkpt lat="45.28491" lon="4.54498">
        <ele>617.557</ele>
        <time>2019-03-29T20:10:50Z</time>
      </trkpt>
      <trkpt lat="45.28497" lon="4.54425">
        <ele>616.816</ele>
        <time>2019-03-29T20:11:10Z</time>
      </trkpt>
      <trkpt lat="45.28461" lon="4.54316">
        <ele>627.096</ele>
        <time>2019-03-29T20:11:30Z</time>
      </trkpt>
      <trkpt lat="45.28411" lon="4.54221">
        <ele>642.888</ele>
        <time>2019-03-29T20:11:50Z</time>
      </trkpt>
      <trkpt lat="45.2833" lon="4.54114">
        <ele>650.973</ele>
        <time>2019-03-29T20:12:10Z</time>
      </trkpt>
      <trkpt lat="45.28251" lon="4.54052">
        <ele>660.253</ele>
        <time>2019-03-29T20:12:30Z</time>
      </trkpt>
      <trkpt lat="45.28201" lon="4.53994">
        <ele>662.004</ele>
        <time>2019-03-29T20:12:50Z</time>
      </trkpt>
      <trkpt lat="45.28168" lon="4.53979">
        <ele>669.714</ele>
        <time>2019-03-29T20:13:10Z</time>
      </trkpt>
      <trkpt lat="45.28061" lon="4.53826">
        <ele>674.608</ele>
        <time>2019-03-29T20:13:30Z</time>
      </trkpt>
      <trkpt lat="45.28008" lon="4.53831">
        <ele>677.179</ele>
        <time>2019-03-29T20:13:50Z</time>
      </trkpt>
      <trkpt lat="45.27937" lon="4.53878">
        <ele>676.063</ele>
        <time>2019-03-29T20:14:10Z</time>
      </trkpt>
      <trkpt lat="45.27898" lon="4.53878">
        <ele>669.538</ele>
        <time>2019-03-29T20:14:30Z</time>
      </trkpt>
      <trkpt lat="45.27898" lon="4.53921">
        <ele>679.089</ele>
        <time>2019-03-29T20:14:50Z</time>
      </trkpt>
      <trkpt lat="45.27801" lon="4.54035">
        <ele>689.268</ele>
        <time>2019-03-29T20:15:10Z</time>
      </trkpt>
      <trkpt lat="45.27813" lon="4.54114">
        <ele>702.428</ele>
        <time>2019-03-29T20:15:30Z</time>
      </trkpt>
      <trkpt lat="45.27785" lon="4.54153">
        <ele>700.61</ele>
        <time>2019-03-29T20:15:50Z</time>
      </trkpt>
      <trkpt lat="45.27714" lon="4.54105">
        <ele>704.035</ele>
        <time>2019-03-29T20:16:10Z</time>
      </trkpt>
      <trkpt lat="45.27661" lon="4.54028">
        <ele>698.242</ele>
        <time>2019-03-29T20:16:30Z</time>
      </trkpt>
      <trkpt lat="45.2762" lon="4.53925">
        <ele>701.622</ele>
        <time>2019-03-29T20:16:50Z</time>
      </trkpt>
      <trkpt lat="45.27594" lon="4.53693">
        <ele>711.414</ele>
        <time>2019-03-29T20:17:10Z</time>
      </trkpt>
      <trkpt lat="45.27641" lon="4.53582">
        <ele>710.508</ele>
        <time>2019-03-29T20:17:30Z</time>
      </trkpt>
      <trkpt lat="45.2761" lon="4.53511">
        <ele>719.768</ele>
        <time>2019-03-29T20:17:50Z</time>
      </trkpt>
      <trkpt lat="45.27613" lon="4.53468">
        <ele>721.222</ele>
        <time>2019-03-29T20:18:10Z</time>
      </trkpt>
      <trkpt lat="45.27646" lon="4.53423">
        <ele>717.737</ele>
        <time>2019-03-29T20:18:30Z</time>
      </trkpt>
      <trkpt lat="45.27664" lon="4.53344">
        <ele>717.238</ele>
        <time>2019-03-29T20:18:50Z</time>
      </trkpt>
      <trkpt lat="45.27665" lon="4.53258">
        <ele>720.567</ele>
        <time>2019-03-29T20:19:10Z</time>
      </trkpt>
      <trkpt lat="45.27582" lon="4.532">
        <ele>725.347</ele>
        <time>2019-03-29T20:19:30Z</time>
      </trkpt>
      <trkpt lat="45.27558" lon="4.53155">
        <ele>728.189</ele>
        <time>2019-03-29T20:19:50Z</time>
      </trkpt>
      <trkpt lat="45.27498" lon="4.5315">
        <ele>727.024</ele>
        <time>2019-03-29T20:20:10Z</time>
      </trkpt>
      <trkpt lat="45.27454" lon="4.53185">
        <ele>723.863</ele>
        <time>2019-03-29T20:20:30Z</time>
      </trkpt>
      <trkpt lat="45.27427" lon="4.53245">
        <ele>728.644</ele>
        <time>2019-03-29T20:20:50Z</time>
      </trkpt>
      <trkpt lat="45.2736" lon="4.53288">
        <ele>728.718</ele>
        <time>2019-03-29T20:21:10Z</time>
      </trkpt>
      <trkpt lat="45.27327" lon="4.53275">
        <ele>724.508</ele>
        <time>2019-03-29T20:21:30Z</time>
      </trkpt>
      <trkpt lat="45.27303" lon="4.53161">
        <ele>720.95</ele>
        <time>2019-03-29T20:21:50Z</time>
      </trkpt>
      <trkpt lat="45.27303" lon="4.53056">
        <ele>733.864</ele>
        <time>2019-03-29T20:22:10Z</time>
      </trkpt>
      <trkpt lat="45.27324" lon="4.52921">
        <ele>734.719</ele>
        <time>2019-03-29T20:22:30Z</time>
      </trkpt>
      <trkpt lat="45.27472" lon="4.52702">
        <ele>739.19</ele>
        <time>2019-03-29T20:22:50Z</time>
      </trkpt>
      <trkpt lat="45.27554" lon="4.52653">
        <ele>739.039</ele>
        <time>2019-03-29T20:23:10Z</time>
      </trkpt>
      <trkpt lat="45.2764" lon="4.52509">
        <ele>752.129</ele>
        <time>2019-03-29T20:23:30Z</time>
      </trkpt>
      <trkpt lat="45.27705" lon="4.52425">
        <ele>751.041</ele>
        <time>2019-03-29T20:23:50Z</time>
      </trkpt>
      <trkpt lat="45.27711" lon="4.52359">
        <ele>752.046</ele>
        <time>2019-03-29T20:24:10Z</time>
      </trkpt>
      <trkpt lat="45.27656" lon="4.52277">
        <ele>753.624</ele>
        <time>2019-03-29T20:24:30Z</time>
      </trkpt>
      <trkpt lat="45.27557" lon="4.52185">
        <ele>750.404</ele>
        <time>2019-03-29T20:24:50Z</time>
      </trkpt>
      <trkpt lat="45.27502" lon="4.52157">
        <ele>754.214</ele>
        <time>2019-03-29T20:25:10Z</time>
      </trkpt>
      <trkpt lat="45.2749" lon="4.52043">
        <ele>758.208</ele>
        <time>2019-03-29T20:25:30Z</time>
      </trkpt>
      <trkpt lat="45.27519" lon="4.51936">
        <ele>757.436</ele>
        <time>2019-03-29T20:25:50Z</time>
      </trkpt>
      <trkpt lat="45.27496" lon="4.51848">
        <ele>765.55</ele>
        <time>2019-03-29T20:26:10Z</time>
      </trkpt>
      <trkpt lat="45.27496" lon="4.51756">
        <ele>762.985</ele>
        <time>2019-03-29T20:26:30Z</time>
      </trkpt>
      <trkpt lat="45.27471" lon="4.51711">
        <ele>764.646</ele>
        <time>2019-03-29T20:26:50Z</time>
      </trkpt>
      <trkpt lat="45.27342" lon="4.51672">
        <ele>767.515</ele>
        <time>2019-03-29T20:27:10Z</time>
      </trkpt>
      <trkpt lat="45.27265" lon="4.51621">
        <ele>763.535</ele>
        <time>2019-03-29T20:27:30Z</time>
      </trkpt>
      <trkpt lat="45.27237" lon="4.51535">
        <ele>756.677</ele>
        <time>2019-03-29T20:27:50Z</time>
      </trkpt>
      <trkpt lat="45.27224" lon="4.51423">
        <ele>769.492</ele>
        <time>2019-03-29T20:28:10Z</time>
      </trkpt>
      <trkpt lat="45.27234" lon="4.51226">
        <ele>773.396</ele>
        <time>2019-03-29T20:28:30Z</time>
      </trkpt>
      <trkpt lat="45.27205" lon="4.51086">
        <ele>773.531</ele>
        <time>2019-03-29T20:28:50Z</time>
      </trkpt>
      <trkpt lat="45.27102" lon="4.50724">
        <ele>788.324</ele>
        <time>2019-03-29T20:29:10Z</time>
      </trkpt>
      <trkpt lat="45.27033" lon="4.50582">
        <ele>789.208</ele>
        <time>2019-03-29T20:29:30Z</time>
      </trkpt>
      <trkpt lat="45.26883" lon="4.50436">
        <ele>785.753</ele>
        <time>2019-03-29T20:29:50Z</time>
      </trkpt>
      <trkpt lat="45.26808" lon="4.50318">
        <ele>786.257</ele>
        <time>2019-03-29T20:30:10Z</time>
      </trkpt>
      <trkpt lat="45.26768" lon="4.50196">
        <ele>786.162</ele>
        <time>2019-03-29T20:30:30Z</time>
      </trkpt>
      <trkpt lat="45.26727" lon="4.49962">
        <ele>792.323</ele>
        <time>2019-03-29T20:30:50Z</time>
      </trkpt>
      <trkpt lat="45.26691" lon="4.49861">
        <ele>794.452</ele>
        <time>2019-03-29T20:31:10Z</time>
      </trkpt>
      <trkpt lat="45.266" lon="4.49696">
        <ele>796.642</ele>
        <time>2019-03-29T20:31:30Z</time>
      </trkpt>
      <trkpt lat="45.26475" lon="4.49546">
        <ele>807.014</ele>
        <time>2019-03-29T20:31:50Z</time>
      </trkpt>
      <trkpt lat="45.26354" lon="4.49408">
        <ele>821.059</ele>
        <time>2019-03-29T20:32:10Z</time>
      </trkpt>
      <trkpt lat="45.2628" lon="4.49258">
        <ele>810.193</ele>
        <time>2019-03-29T20:32:30Z</time>
      </trkpt>
      <trkpt lat="45.26218" lon="4.48715">
        <ele>818.565</ele>
        <time>2019-03-29T20:32:50Z</time>
      </trkpt>
      <trkpt lat="45.26192" lon="4.48696">
        <ele>821.021</ele>
        <time>2019-03-29T20:33:10Z</time>
      </trkpt>
      <trkpt lat="45.26176" lon="4.48621">
        <ele>829.308</ele>
        <time>2019-03-29T20:33:30Z</time>
      </trkpt>
      <trkpt lat="45.25994" lon="4.48462">
        <ele>866.553</ele>
        <time>2019-03-29T20:33:50Z</time>
      </trkpt>
      <trkpt lat="45.25934" lon="4.48348">
        <ele>887.847</ele>
        <time>2019-03-29T20:34:10Z</time>
      </trkpt>
      <trkpt lat="45.25895" lon="4.48275">
        <ele>899.132</ele>
        <time>2019-03-29T20:34:30Z</time>
      </trkpt>
      <trkpt lat="45.25809" lon="4.48204">
        <ele>909.933</ele>
        <time>2019-03-29T20:34:50Z</time>
      </trkpt>
      <trkpt lat="45.25766" lon="4.48086">
        <ele>927.682</ele>
        <time>2019-03-29T20:35:10Z</time>
      </trkpt>
      <trkpt lat="45.25707" lon="4.48295">
        <ele>948.512</ele>
        <time>2019-03-29T20:35:30Z</time>
      </trkpt>
      <trkpt lat="45.25623" lon="4.48389">
        <ele>951.344</ele>
        <time>2019-03-29T20:35:50Z</time>
      </trkpt>
      <trkpt lat="45.25553" lon="4.48393">
        <ele>967.079</ele>
        <time>2019-03-29T20:36:10Z</time>
      </trkpt>
      <trkpt lat="45.25508" lon="4.48443">
        <ele>967.127</ele>
        <time>2019-03-29T20:36:30Z</time>
      </trkpt>
      <trkpt lat="45.2536" lon="4.48466">
        <ele>967.268</ele>
        <time>2019-03-29T20:36:50Z</time>
      </trkpt>
      <trkpt lat="45.2546" lon="4.48391">
        <ele>988.514</ele>
        <time>2019-03-29T20:37:10Z</time>
      </trkpt>
      <trkpt lat="45.25491" lon="4.48338">
        <ele>994.208</ele>
        <time>2019-03-29T20:37:30Z</time>
      </trkpt>
      <trkpt lat="45.2554" lon="4.48277">
        <ele>998.116</ele>
        <time>2019-03-29T20:37:50Z</time>
      </trkpt>
      <trkpt lat="45.25571" lon="4.48125">
        <ele>1007.43</ele>
        <time>2019-03-29T20:38:10Z</time>
      </trkpt>
      <trkpt lat="45.25534" lon="4.47999">
        <ele>1024.185</ele>
        <time>2019-03-29T20:38:30Z</time>
      </trkpt>
      <trkpt lat="45.25493" lon="4.47917">
        <ele>1030.316</ele>
        <time>2019-03-29T20:38:50Z</time>
      </trkpt>
      <trkpt lat="45.25445" lon="4.47874">
        <ele>1037.275</ele>
        <time>2019-03-29T20:39:10Z</time>
      </trkpt>
      <trkpt lat="45.25221" lon="4.47898">
        <ele>1054.265</ele>
        <time>2019-03-29T20:39:30Z</time>
      </trkpt>
      <trkpt lat="45.25186" lon="4.47795">
        <ele>1052.267</ele>
        <time>2019-03-29T20:39:50Z</time>
      </trkpt>
      <trkpt lat="45.25106" lon="4.47717">
        <ele>1056.932</ele>
        <time>2019-03-29T20:40:10Z</time>
      </trkpt>
      <trkpt lat="45.24988" lon="4.47666">
        <ele>1067.561</ele>
        <time>2019-03-29T20:40:30Z</time>
      </trkpt>
      <trkpt lat="45.24871" lon="4.47674">
        <ele>1078.721</ele>
        <time>2019-03-29T20:40:50Z</time>
      </trkpt>
      <trkpt lat="45.24825" lon="4.47653">
        <ele>1082.513</ele>
        <time>2019-03-29T20:41:10Z</time>
      </trkpt>
      <trkpt lat="45.24822" lon="4.47612">
        <ele>1080.508</ele>
        <time>2019-03-29T20:41:30Z</time>
      </trkpt>
      <trkpt lat="45.24951" lon="4.47441">
        <ele>1076.62</ele>
        <time>2019-03-29T20:41:50Z</time>
      </trkpt>
      <trkpt lat="45.2504" lon="4.47359">
        <ele>1081.184</ele>
        <time>2019-03-29T20:42:10Z</time>
      </trkpt>
      <trkpt lat="45.25124" lon="4.47355">
        <ele>1072.519</ele>
        <time>2019-03-29T20:42:30Z</time>
      </trkpt>
      <trkpt lat="45.25182" lon="4.47368">
        <ele>1069.14</ele>
        <time>2019-03-29T20:42:50Z</time>
      </trkpt>
      <trkpt lat="45.25239" lon="4.47333">
        <ele>1073.679</ele>
        <time>2019-03-29T20:43:10Z</time>
      </trkpt>
      <trkpt lat="45.25287" lon="4.47187">
        <ele>1078.879</ele>
        <time>2019-03-29T20:43:30Z</time>
      </trkpt>
      <trkpt lat="45.25278" lon="4.47078">
        <ele>1083.831</ele>
        <time>2019-03-29T20:43:50Z</time>
      </trkpt>
      <trkpt lat="45.25233" lon="4.46973">
        <ele>1106.036</ele>
        <time>2019-03-29T20:44:10Z</time>
      </trkpt>
      <trkpt lat="45.252" lon="4.46848">
        <ele>1111.429</ele>
        <time>2019-03-29T20:44:30Z</time>
      </trkpt>
      <trkpt lat="45.25233" lon="4.46696">
        <ele>1096.9</ele>
        <time>2019-03-29T20:44:50Z</time>
      </trkpt>
      <trkpt lat="45.25203" lon="4.4663">
        <ele>1105.72</ele>
        <time>2019-03-29T20:45:10Z</time>
      </trkpt>
      <trkpt lat="45.25135" lon="4.46535">
        <ele>1106.508</ele>
        <time>2019-03-29T20:45:30Z</time>
      </trkpt>
      <trkpt lat="45.25014" lon="4.46419">
        <ele>1097.966</ele>
        <time>2019-03-29T20:45:50Z</time>
      </trkpt>
      <trkpt lat="45.25043" lon="4.46213">
        <ele>1085.86</ele>
        <time>2019-03-29T20:46:10Z</time>
      </trkpt>
      <trkpt lat="45.25093" lon="4.4614">
        <ele>1078.045</ele>
        <time>2019-03-29T20:46:30Z</time>
      </trkpt>
      <trkpt lat="45.25068" lon="4.46123">
        <ele>1076.096</ele>
        <time>2019-03-29T20:46:50Z</time>
      </trkpt>
      <trkpt lat="45.24978" lon="4.46177">
        <ele>1095.785</ele>
        <time>2019-03-29T20:47:10Z</time>
      </trkpt>
      <trkpt lat="45.24908" lon="4.4617">
        <ele>1114.195</ele>
        <time>2019-03-29T20:47:30Z</time>
      </trkpt>
      <trkpt lat="45.24869" lon="4.46112">
        <ele>1117.947</ele>
        <time>2019-03-29T20:47:50Z</time>
      </trkpt>
      <trkpt lat="45.24834" lon="4.4602">
        <ele>1119.312</ele>
        <time>2019-03-29T20:48:10Z</time>
      </trkpt>
      <trkpt lat="45.24834" lon="4.4602">
        <ele>1119.341</ele>
        <time>2019-03-29T20:48:30Z</time>
      </trkpt>
      <trkpt lat="45.24751" lon="4.45973">
        <ele>1132.081</ele>
        <time>2019-03-29T20:48:50Z</time>
      </trkpt>
      <trkpt lat="45.24661" lon="4.45951">
        <ele>1138.609</ele>
        <time>2019-03-29T20:49:10Z</time>
      </trkpt>
      <trkpt lat="45.24564" lon="4.45994">
        <ele>1141.808</ele>
        <time>2019-03-29T20:49:30Z</time>
      </trkpt>
      <trkpt lat="45.24487" lon="4.46059">
        <ele>1155.168</ele>
        <time>2019-03-29T20:49:50Z</time>
      </trkpt>
      <trkpt lat="45.24345" lon="4.45979">
        <ele>1154.942</ele>
        <time>2019-03-29T20:50:10Z</time>
      </trkpt>
      <trkpt lat="45.24222" lon="4.45975">
        <ele>1174.397</ele>
        <time>2019-03-29T20:50:30Z</time>
      </trkpt>
      <trkpt lat="45.24088" lon="4.45878">
        <ele>1178.048</ele>
        <time>2019-03-29T20:50:50Z</time>
      </trkpt>
      <trkpt lat="45.24067" lon="4.45833">
        <ele>1177.677</ele>
        <time>2019-03-29T20:51:10Z</time>
      </trkpt>
      <trkpt lat="45.23973" lon="4.45771">
        <ele>1190.297</ele>
        <time>2019-03-29T20:51:30Z</time>
      </trkpt>
      <trkpt lat="45.23953" lon="4.45741">
        <ele>1194.679</ele>
        <time>2019-03-29T20:51:50Z</time>
      </trkpt>
      <trkpt lat="45.23893" lon="4.45681">
        <ele>1201.814</ele>
        <time>2019-03-29T20:52:10Z</time>
      </trkpt>
      <trkpt lat="45.23818" lon="4.45632">
        <ele>1211.651</ele>
        <time>2019-03-29T20:52:30Z</time>
      </trkpt>
      <trkpt lat="45.23745" lon="4.45524">
        <ele>1213.301</ele>
        <time>2019-03-29T20:52:50Z</time>
      </trkpt>
      <trkpt lat="45.23663" lon="4.45451">
        <ele>1212.611</ele>
        <time>2019-03-29T20:53:10Z</time>
      </trkpt>
      <trkpt lat="45.23632" lon="4.45404">
        <ele>1214.008</ele>
        <time>2019-03-29T20:53:30Z</time>
      </trkpt>
      <trkpt lat="45.23458" lon="4.45328">
        <ele>1211.789</ele>
        <time>2019-03-29T20:53:50Z</time>
      </trkpt>
      <trkpt lat="45.23296" lon="4.45304">
        <ele>1201.353</ele>
        <time>2019-03-29T20:54:10Z</time>
      </trkpt>
      <trkpt lat="45.23039" lon="4.45186">
        <ele>1187.448</ele>
        <time>2019-03-29T20:54:30Z</time>
      </trkpt>
      <trkpt lat="45.22888" lon="4.45199">
        <ele>1180.049</ele>
        <time>2019-03-29T20:54:50Z</time>
      </trkpt>
      <trkpt lat="45.2277" lon="4.45236">
        <ele>1179.768</ele>
        <time>2019-03-29T20:55:10Z</time>
      </trkpt>
      <trkpt lat="45.22725" lon="4.45283">
        <ele>1179.668</ele>
        <time>2019-03-29T20:55:30Z</time>
      </trkpt>
      <trkpt lat="45.22624" lon="4.45328">
        <ele>1172.94</ele>
        <time>2019-03-29T20:55:50Z</time>
      </trkpt>
      <trkpt lat="45.22432" lon="4.45528">
        <ele>1157.275</ele>
        <time>2019-03-29T20:56:10Z</time>
      </trkpt>
      <trkpt lat="45.2237" lon="4.45508">
        <ele>1149.417</ele>
        <time>2019-03-29T20:56:30Z</time>
      </trkpt>
      <trkpt lat="45.2229" lon="4.45547">
        <ele>1140.987</ele>
        <time>2019-03-29T20:56:50Z</time>
      </trkpt>
      <trkpt lat="45.22191" lon="4.45453">
        <ele>1134.115</ele>
        <time>2019-03-29T20:57:10Z</time>
      </trkpt>
      <trkpt lat="45.22143" lon="4.4533">
        <ele>1125.908</ele>
        <time>2019-03-29T20:57:30Z</time>
      </trkpt>
      <trkpt lat="45.22099" lon="4.45326">
        <ele>1121.895</ele>
        <time>2019-03-29T20:57:50Z</time>
      </trkpt>
      <trkpt lat="45.22036" lon="4.45343">
        <ele>1122.129</ele>
        <time>2019-03-29T20:58:10Z</time>
      </trkpt>
      <trkpt lat="45.21969" lon="4.45315">
        <ele>1122.174</ele>
        <time>2019-03-29T20:58:30Z</time>
      </trkpt>
      <trkpt lat="45.2175" lon="4.45311">
        <ele>1120.425</ele>
        <time>2019-03-29T20:58:50Z</time>
      </trkpt>
      <trkpt lat="45.2141" lon="4.45083">
        <ele>1109.324</ele>
        <time>2019-03-29T20:59:10Z</time>
      </trkpt>
      <trkpt lat="45.21303" lon="4.4485">
        <ele>1104.894</ele>
        <time>2019-03-29T20:59:30Z</time>
      </trkpt>
      <trkpt lat="45.21277" lon="4.44721">
        <ele>1108.226</ele>
        <time>2019-03-29T20:59:50Z</time>
      </trkpt>
      <trkpt lat="45.2123" lon="4.44671">
        <ele>1110.461</ele>
        <time>2019-03-29T21:00:10Z</time>
      </trkpt>
      <trkpt lat="45.21129" lon="4.44508">
        <ele>1111.258</ele>
        <time>2019-03-29T21:00:30Z</time>
      </trkpt>
      <trkpt lat="45.21065" lon="4.44435">
        <ele>1107.552</ele>
        <time>2019-03-29T21:00:50Z</time>
      </trkpt>
      <trkpt lat="45.21029" lon="4.4433">
        <ele>1103.917</ele>
        <time>2019-03-29T21:01:10Z</time>
      </trkpt>
      <trkpt lat="45.21011" lon="4.44247">
        <ele>1098.408</ele>
        <time>2019-03-29T21:01:30Z</time>
      </trkpt>
      <trkpt lat="45.20917" lon="4.4409">
        <ele>1084.889</ele>
        <time>2019-03-29T21:01:50Z</time>
      </trkpt>
      <trkpt lat="45.20828" lon="4.43966">
        <ele>1079.553</ele>
        <time>2019-03-29T21:02:10Z</time>
      </trkpt>
      <trkpt lat="45.20737" lon="4.43779">
        <ele>1063.938</ele>
        <time>2019-03-29T21:02:30Z</time>
      </trkpt>
      <trkpt lat="45.20644" lon="4.43702">
        <ele>1047.259</ele>
        <time>2019-03-29T21:02:50Z</time>
      </trkpt>
      <trkpt lat="45.20606" lon="4.43639">
        <ele>1043.048</ele>
        <time>2019-03-29T21:03:10Z</time>
      </trkpt>
      <trkpt lat="45.20591" lon="4.43397">
        <ele>1031.948</ele>
        <time>2019-03-29T21:03:30Z</time>
      </trkpt>
      <trkpt lat="45.20639" lon="4.43251">
        <ele>1027.09</ele>
        <time>2019-03-29T21:03:50Z</time>
      </trkpt>
      <trkpt lat="45.20576" lon="4.4321">
        <ele>1020.345</ele>
        <time>2019-03-29T21:04:10Z</time>
      </trkpt>
      <trkpt lat="45.20417" lon="4.43054">
        <ele>1004.073</ele>
        <time>2019-03-29T21:04:30Z</time>
      </trkpt>
      <trkpt lat="45.20388" lon="4.43002">
        <ele>1000.185</ele>
        <time>2019-03-29T21:04:50Z</time>
      </trkpt>
      <trkpt lat="45.20376" lon="4.42948">
        <ele>993.613</ele>
        <time>2019-03-29T21:05:10Z</time>
      </trkpt>
      <trkpt lat="45.20346" lon="4.42845">
        <ele>979.008</ele>
        <time>2019-03-29T21:05:30Z</time>
      </trkpt>
      <trkpt lat="45.20343" lon="4.42766">
        <ele>969.381</ele>
        <time>2019-03-29T21:05:50Z</time>
      </trkpt>
      <trkpt lat="45.20373" lon="4.42618">
        <ele>965.515</ele>
        <time>2019-03-29T21:06:10Z</time>
      </trkpt>
      <trkpt lat="45.20353" lon="4.42444">
        <ele>950.68</ele>
        <time>2019-03-29T21:06:30Z</time>
      </trkpt>
      <trkpt lat="45.20361" lon="4.42285">
        <ele>931.611</ele>
        <time>2019-03-29T21:06:50Z</time>
      </trkpt>
      <trkpt lat="45.20374" lon="4.42219">
        <ele>932.29</ele>
        <time>2019-03-29T21:07:10Z</time>
      </trkpt>
      <trkpt lat="45.20371" lon="4.42043">
        <ele>905.86</ele>
        <time>2019-03-29T21:07:30Z</time>
      </trkpt>
      <trkpt lat="45.20388" lon="4.41983">
        <ele>909.612</ele>
        <time>2019-03-29T21:07:50Z</time>
      </trkpt>
      <trkpt lat="45.20349" lon="4.41865">
        <ele>885.447</ele>
        <time>2019-03-29T21:08:10Z</time>
      </trkpt>
      <trkpt lat="45.20341" lon="4.41749">
        <ele>876.284</ele>
        <time>2019-03-29T21:08:30Z</time>
      </trkpt>
      <trkpt lat="45.20316" lon="4.41794">
        <ele>878.007</ele>
        <time>2019-03-29T21:08:50Z</time>
      </trkpt>
      <trkpt lat="45.20288" lon="4.41798">
        <ele>884.317</ele>
        <time>2019-03-29T21:09:10Z</time>
      </trkpt>
      <trkpt lat="45.20219" lon="4.41637">
        <ele>894.808</ele>
        <time>2019-03-29T21:09:30Z</time>
      </trkpt>
      <trkpt lat="45.20105" lon="4.41577">
        <ele>912.112</ele>
        <time>2019-03-29T21:09:50Z</time>
      </trkpt>
      <trkpt lat="45.19977" lon="4.41569">
        <ele>923.076</ele>
        <time>2019-03-29T21:10:10Z</time>
      </trkpt>
      <trkpt lat="45.19939" lon="4.41592">
        <ele>919.231</ele>
        <time>2019-03-29T21:10:30Z</time>
      </trkpt>
      <trkpt lat="45.19939" lon="4.41616">
        <ele>924.962</ele>
        <time>2019-03-29T21:10:50Z</time>
      </trkpt>
      <trkpt lat="45.20003" lon="4.4165">
        <ele>944.351</ele>
        <time>2019-03-29T21:11:10Z</time>
      </trkpt>
      <trkpt lat="45.20071" lon="4.41723">
        <ele>953.081</ele>
        <time>2019-03-29T21:11:30Z</time>
      </trkpt>
      <trkpt lat="45.20084" lon="4.418">
        <ele>954.093</ele>
        <time>2019-03-29T21:11:50Z</time>
      </trkpt>
      <trkpt lat="45.20028" lon="4.41861">
        <ele>953.988</ele>
        <time>2019-03-29T21:12:10Z</time>
      </trkpt>
      <trkpt lat="45.19989" lon="4.4185">
        <ele>957.639</ele>
        <time>2019-03-29T21:12:30Z</time>
      </trkpt>
      <trkpt lat="45.19918" lon="4.41876">
        <ele>970.001</ele>
        <time>2019-03-29T21:12:50Z</time>
      </trkpt>
      <trkpt lat="45.19847" lon="4.41901">
        <ele>981.221</ele>
        <time>2019-03-29T21:13:10Z</time>
      </trkpt>
      <trkpt lat="45.19753" lon="4.41852">
        <ele>975.308</ele>
        <time>2019-03-29T21:13:30Z</time>
      </trkpt>
      <trkpt lat="45.19693" lon="4.41788">
        <ele>980.677</ele>
        <time>2019-03-29T21:13:50Z</time>
      </trkpt>
      <trkpt lat="45.19563" lon="4.41717">
        <ele>995.941</ele>
        <time>2019-03-29T21:14:10Z</time>
      </trkpt>
      <trkpt lat="45.19345" lon="4.41219">
        <ele>998.736</ele>
        <time>2019-03-29T21:14:30Z</time>
      </trkpt>
      <trkpt lat="45.19371" lon="4.41015">
        <ele>990.317</ele>
        <time>2019-03-29T21:14:50Z</time>
      </trkpt>
      <trkpt lat="45.19355" lon="4.40794">
        <ele>980.716</ele>
        <time>2019-03-29T21:15:10Z</time>
      </trkpt>
      <trkpt lat="45.19302" lon="4.40758">
        <ele>975.846</ele>
        <time>2019-03-29T21:15:30Z</time>
      </trkpt>
      <trkpt lat="45.19283" lon="4.40702">
        <ele>971.478</ele>
        <time>2019-03-29T21:15:50Z</time>
      </trkpt>
      <trkpt lat="45.1929" lon="4.40661">
        <ele>970.933</ele>
        <time>2019-03-29T21:16:10Z</time>
      </trkpt>
      <trkpt lat="45.19219" lon="4.40599">
        <ele>949.023</ele>
        <time>2019-03-29T21:16:30Z</time>
      </trkpt>
      <trkpt lat="45.19189" lon="4.40524">
        <ele>942.883</ele>
        <time>2019-03-29T21:16:50Z</time>
      </trkpt>
      <trkpt lat="45.19108" lon="4.40447">
        <ele>929.111</ele>
        <time>2019-03-29T21:17:10Z</time>
      </trkpt>
      <trkpt lat="45.1898" lon="4.40247">
        <ele>907.208</ele>
        <time>2019-03-29T21:17:30Z</time>
      </trkpt>
      <trkpt lat="45.18913" lon="4.40011">
        <ele>945.116</ele>
        <time>2019-03-29T21:17:50Z</time>
      </trkpt>
      <trkpt lat="45.18856" lon="4.4004">
        <ele>961.66</ele>
        <time>2019-03-29T21:18:10Z</time>
      </trkpt>
      <trkpt lat="45.18803" lon="4.39989">
        <ele>959.175</ele>
        <time>2019-03-29T21:18:30Z</time>
      </trkpt>
      <trkpt lat="45.18643" lon="4.4">
        <ele>964.996</ele>
        <time>2019-03-29T21:18:50Z</time>
      </trkpt>
      <trkpt lat="45.18646" lon="4.39972">
        <ele>963.795</ele>
        <time>2019-03-29T21:19:10Z</time>
      </trkpt>
      <trkpt lat="45.18719" lon="4.39871">
        <ele>953.595</ele>
        <time>2019-03-29T21:19:30Z</time>
      </trkpt>
      <trkpt lat="45.1874" lon="4.39756">
        <ele>955.187</ele>
        <time>2019-03-29T21:19:50Z</time>
      </trkpt>
      <trkpt lat="45.18696" lon="4.39826">
        <ele>970.462</ele>
        <time>2019-03-29T21:20:10Z</time>
      </trkpt>
      <trkpt lat="45.18549" lon="4.39959">
        <ele>986.547</ele>
        <time>2019-03-29T21:20:30Z</time>
      </trkpt>
      <trkpt lat="45.18472" lon="4.39994">
        <ele>987.929</ele>
        <time>2019-03-29T21:20:50Z</time>
      </trkpt>
      <trkpt lat="45.18474" lon="4.39876">
        <ele>1015.621</ele>
        <time>2019-03-29T21:21:10Z</time>
      </trkpt>
      <trkpt lat="45.18451" lon="4.39717">
        <ele>1029.608</ele>
        <time>2019-03-29T21:21:30Z</time>
      </trkpt>
      <trkpt lat="45.18421" lon="4.39689">
        <ele>1024.238</ele>
        <time>2019-03-29T21:21:50Z</time>
      </trkpt>
      <trkpt lat="45.18344" lon="4.39777">
        <ele>1028.252</ele>
        <time>2019-03-29T21:22:10Z</time>
      </trkpt>
      <trkpt lat="45.18158" lon="4.39848">
        <ele>1008.427</ele>
        <time>2019-03-29T21:22:30Z</time>
      </trkpt>
      <trkpt lat="45.18041" lon="4.39854">
        <ele>978.318</ele>
        <time>2019-03-29T21:22:50Z</time>
      </trkpt>
      <trkpt lat="45.18099" lon="4.39582">
        <ele>963.367</ele>
        <time>2019-03-29T21:23:10Z</time>
      </trkpt>
      <trkpt lat="45.18155" lon="4.39472">
        <ele>952.847</ele>
        <time>2019-03-29T21:23:30Z</time>
      </trkpt>
      <trkpt lat="45.18132" lon="4.39316">
        <ele>937.099</ele>
        <time>2019-03-29T21:23:50Z</time>
      </trkpt>
      <trkpt lat="45.18133" lon="4.39206">
        <ele>928.114</ele>
        <time>2019-03-29T21:24:10Z</time>
      </trkpt>
      <trkpt lat="45.18112" lon="4.39084">
        <ele>911.612</ele>
        <time>2019-03-29T21:24:30Z</time>
      </trkpt>
      <trkpt lat="45.18077" lon="4.39264">
        <ele>903.832</ele>
        <time>2019-03-29T21:24:50Z</time>
      </trkpt>
      <trkpt lat="45.17993" lon="4.39392">
        <ele>883.605</ele>
        <time>2019-03-29T21:25:10Z</time>
      </trkpt>
      <trkpt lat="45.18034" lon="4.39244">
        <ele>884.508</ele>
        <time>2019-03-29T21:25:30Z</time>
      </trkpt>
      <trkpt lat="45.18047" lon="4.39128">
        <ele>882.095</ele>
        <time>2019-03-29T21:25:50Z</time>
      </trkpt>
      <trkpt lat="45.1804" lon="4.39052">
        <ele>878.339</ele>
        <time>2019-03-29T21:26:10Z</time>
      </trkpt>
      <trkpt lat="45.18164" lon="4.38863">
        <ele>872.344</ele>
        <time>2019-03-29T21:26:30Z</time>
      </trkpt>
      <trkpt lat="45.18194" lon="4.38867">
        <ele>872.985</ele>
        <time>2019-03-29T21:26:50Z</time>
      </trkpt>
      <trkpt lat="45.1818" lon="4.38818">
        <ele>870.894</ele>
        <time>2019-03-29T21:27:10Z</time>
      </trkpt>
      <trkpt lat="45.18214" lon="4.38807">
        <ele>870.714</ele>
        <time>2019-03-29T21:27:30Z</time>
      </trkpt>
      <trkpt lat="45.18222" lon="4.3877">
        <ele>873.856</ele>
        <time>2019-03-29T21:27:50Z</time>
      </trkpt>
      <trkpt lat="45.18217" lon="4.38692">
        <ele>885.451</ele>
        <time>2019-03-29T21:28:10Z</time>
      </trkpt>
      <trkpt lat="45.18192" lon="4.3861">
        <ele>899.522</ele>
        <time>2019-03-29T21:28:30Z</time>
      </trkpt>
      <trkpt lat="45.18235" lon="4.38647">
        <ele>900.062</ele>
        <time>2019-03-29T21:28:50Z</time>
      </trkpt>
      <trkpt lat="45.18272" lon="4.38696">
        <ele>903.008</ele>
        <time>2019-03-29T21:29:10Z</time>
      </trkpt>
      <trkpt lat="45.18313" lon="4.38698">
        <ele>908.808</ele>
        <time>2019-03-29T21:29:30Z</time>
      </trkpt>
      <trkpt lat="45.1835" lon="4.38665">
        <ele>916.956</ele>
        <time>2019-03-29T21:29:50Z</time>
      </trkpt>
      <trkpt lat="45.18291" lon="4.38633">
        <ele>923.49</ele>
        <time>2019-03-29T21:30:10Z</time>
      </trkpt>
      <trkpt lat="45.1825" lon="4.3842">
        <ele>957.775</ele>
        <time>2019-03-29T21:30:30Z</time>
      </trkpt>
      <trkpt lat="45.18224" lon="4.38359">
        <ele>964.396</ele>
        <time>2019-03-29T21:30:50Z</time>
      </trkpt>
      <trkpt lat="45.18225" lon="4.38251">
        <ele>979.545</ele>
        <time>2019-03-29T21:31:10Z</time>
      </trkpt>
      <trkpt lat="45.18257" lon="4.3807">
        <ele>1003.295</ele>
        <time>2019-03-29T21:31:30Z</time>
      </trkpt>
      <trkpt lat="45.18259" lon="4.37981">
        <ele>1007.377</ele>
        <time>2019-03-29T21:31:50Z</time>
      </trkpt>
      <trkpt lat="45.18318" lon="4.37701">
        <ele>1018.922</ele>
        <time>2019-03-29T21:32:10Z</time>
      </trkpt>
      <trkpt lat="45.18319" lon="4.3738">
        <ele>1037.574</ele>
        <time>2019-03-29T21:32:30Z</time>
      </trkpt>
      <trkpt lat="45.18336" lon="4.37275">
        <ele>1034.856</ele>
        <time>2019-03-29T21:32:50Z</time>
      </trkpt>
      <trkpt lat="45.18357" lon="4.37163">
        <ele>1027.621</ele>
        <time>2019-03-29T21:33:10Z</time>
      </trkpt>
      <trkpt lat="45.18386" lon="4.37031">
        <ele>1030.008</ele>
        <time>2019-03-29T21:33:30Z</time>
      </trkpt>
      <trkpt lat="45.18432" lon="4.36628">
        <ele>1038.231</ele>
        <time>2019-03-29T21:33:50Z</time>
      </trkpt>
      <trkpt lat="45.18434" lon="4.36393">
        <ele>1043.125</ele>
        <time>2019-03-29T21:34:10Z</time>
      </trkpt>
      <trkpt lat="45.18434" lon="4.36393">
        <ele>1043.14</ele>
        <time>2019-03-29T21:34:30Z</time>
      </trkpt>
      <trkpt lat="45.18589" lon="4.35888">
        <ele>1033.371</ele>
        <time>2019-03-29T21:34:50Z</time>
      </trkpt>
      <trkpt lat="45.18609" lon="4.35764">
        <ele>1025.79</ele>
        <time>2019-03-29T21:35:10Z</time>
      </trkpt>
      <trkpt lat="45.18611" lon="4.35629">
        <ele>1013.96</ele>
        <time>2019-03-29T21:35:30Z</time>
      </trkpt>
      <trkpt lat="45.18603" lon="4.3544">
        <ele>995.562</ele>
        <time>2019-03-29T21:35:50Z</time>
      </trkpt>
      <trkpt lat="45.18645" lon="4.35275">
        <ele>988.367</ele>
        <time>2019-03-29T21:36:10Z</time>
      </trkpt>
      <trkpt lat="45.18656" lon="4.35212">
        <ele>987.421</ele>
        <time>2019-03-29T21:36:30Z</time>
      </trkpt>
      <trkpt lat="45.18701" lon="4.35026">
        <ele>978.941</ele>
        <time>2019-03-29T21:36:50Z</time>
      </trkpt>
      <trkpt lat="45.187" lon="4.34775">
        <ele>967.405</ele>
        <time>2019-03-29T21:37:10Z</time>
      </trkpt>
      <trkpt lat="45.18662" lon="4.34554">
        <ele>957.608</ele>
        <time>2019-03-29T21:37:30Z</time>
      </trkpt>
      <trkpt lat="45.18692" lon="4.34292">
        <ele>954.066</ele>
        <time>2019-03-29T21:37:50Z</time>
      </trkpt>
      <trkpt lat="45.1868" lon="4.34249">
        <ele>955.66</ele>
        <time>2019-03-29T21:38:10Z</time>
      </trkpt>
      <trkpt lat="45.18801" lon="4.34069">
        <ele>960.285</ele>
        <time>2019-03-29T21:38:30Z</time>
      </trkpt>
      <trkpt lat="45.1883" lon="4.33957">
        <ele>959.416</ele>
        <time>2019-03-29T21:38:50Z</time>
      </trkpt>
      <trkpt lat="45.18822" lon="4.33781">
        <ele>953.865</ele>
        <time>2019-03-29T21:39:10Z</time>
      </trkpt>
      <trkpt lat="45.18839" lon="4.33597">
        <ele>947.855</ele>
        <time>2019-03-29T21:39:30Z</time>
      </trkpt>
      <trkpt lat="45.18871" lon="4.33408">
        <ele>945.447</ele>
        <time>2019-03-29T21:39:50Z</time>
      </trkpt>
      <trkpt lat="45.18928" lon="4.33208">
        <ele>946.282</ele>
        <time>2019-03-29T21:40:10Z</time>
      </trkpt>
      <trkpt lat="45.18913" lon="4.33129">
        <ele>941.175</ele>
        <time>2019-03-29T21:40:30Z</time>
      </trkpt>
      <trkpt lat="45.18844" lon="4.33086">
        <ele>938.428</ele>
        <time>2019-03-29T21:40:50Z</time>
      </trkpt>
      <trkpt lat="45.18633" lon="4.33084">
        <ele>932.02</ele>
        <time>2019-03-29T21:41:10Z</time>
      </trkpt>
      <trkpt lat="45.18623" lon="4.33028">
        <ele>933.408</ele>
        <time>2019-03-29T21:41:30Z</time>
      </trkpt>
      <trkpt lat="45.1863" lon="4.32899">
        <ele>935.411</ele>
        <time>2019-03-29T21:41:50Z</time>
      </trkpt>
      <trkpt lat="45.18605" lon="4.32637">
        <ele>921.965</ele>
        <time>2019-03-29T21:42:10Z</time>
      </trkpt>
      <trkpt lat="45.18589" lon="4.32125">
        <ele>916.85</ele>
        <time>2019-03-29T21:42:30Z</time>
      </trkpt>
      <trkpt lat="45.186" lon="4.31625">
        <ele>926.111</ele>
        <time>2019-03-29T21:42:50Z</time>
      </trkpt>
      <trkpt lat="45.18437" lon="4.3114">
        <ele>928.31</ele>
        <time>2019-03-29T21:43:10Z</time>
      </trkpt>
      <trkpt lat="45.18432" lon="4.30889">
        <ele>918.41</ele>
        <time>2019-03-29T21:43:30Z</time>
      </trkpt>
      <trkpt lat="45.18472" lon="4.30627">
        <ele>911.082</ele>
        <time>2019-03-29T21:43:50Z</time>
      </trkpt>
      <trkpt lat="45.18435" lon="4.30539">
        <ele>911.937</ele>
        <time>2019-03-29T21:44:10Z</time>
      </trkpt>
      <trkpt lat="45.18388" lon="4.30363">
        <ele>911.189</ele>
        <time>2019-03-29T21:44:30Z</time>
      </trkpt>
      <trkpt lat="45.18385" lon="4.3026">
        <ele>912.106</ele>
        <time>2019-03-29T21:44:50Z</time>
      </trkpt>
      <trkpt lat="45.18397" lon="4.30213">
        <ele>911.026</ele>
        <time>2019-03-29T21:45:10Z</time>
      </trkpt>
      <trkpt lat="45.18402" lon="4.30075">
        <ele>910.208</ele>
        <time>2019-03-29T21:45:30Z</time>
      </trkpt>
      <trkpt lat="45.18375" lon="4.29992">
        <ele>908.652</ele>
        <time>2019-03-29T21:45:50Z</time>
      </trkpt>
      <trkpt lat="45.18309" lon="4.29952">
        <ele>919.776</ele>
        <time>2019-03-29T21:46:10Z</time>
      </trkpt>
      <trkpt lat="45.1823" lon="4.29712">
        <ele>908.911</ele>
        <time>2019-03-29T21:46:30Z</time>
      </trkpt>
      <trkpt lat="45.18254" lon="4.29574">
        <ele>916.572</ele>
        <time>2019-03-29T21:46:50Z</time>
      </trkpt>
      <trkpt lat="45.18246" lon="4.29512">
        <ele>913.491</ele>
        <time>2019-03-29T21:47:10Z</time>
      </trkpt>
      <trkpt lat="45.18247" lon="4.29438">
        <ele>903.141</ele>
        <time>2019-03-29T21:47:30Z</time>
      </trkpt>
      <trkpt lat="45.18231" lon="4.29345">
        <ele>891.193</ele>
        <time>2019-03-29T21:47:50Z</time>
      </trkpt>
      <trkpt lat="45.18241" lon="4.29135">
        <ele>880.398</ele>
        <time>2019-03-29T21:48:10Z</time>
      </trkpt>
      <trkpt lat="45.18261" lon="4.29119">
        <ele>881.781</ele>
        <time>2019-03-29T21:48:30Z</time>
      </trkpt>
      <trkpt lat="45.1824" lon="4.29057">
        <ele>876.461</ele>
        <time>2019-03-29T21:48:50Z</time>
      </trkpt>
      <trkpt lat="45.18196" lon="4.29033">
        <ele>869.717</ele>
        <time>2019-03-29T21:49:10Z</time>
      </trkpt>
      <trkpt lat="45.18151" lon="4.28983">
        <ele>864.008</ele>
        <time>2019-03-29T21:49:30Z</time>
      </trkpt>
      <trkpt lat="45.1789" lon="4.28885">
        <ele>848.022</ele>
        <time>2019-03-29T21:49:50Z</time>
      </trkpt>
      <trkpt lat="45.17863" lon="4.28833">
        <ele>853.646</ele>
        <time>2019-03-29T21:50:10Z</time>
      </trkpt>
      <trkpt lat="45.17867" lon="4.28701">
        <ele>854.281</ele>
        <time>2019-03-29T21:50:30Z</time>
      </trkpt>
      <trkpt lat="45.17797" lon="4.28414">
        <ele>875.212</ele>
        <time>2019-03-29T21:50:50Z</time>
      </trkpt>
      <trkpt lat="45.17756" lon="4.2836">
        <ele>874.371</ele>
        <time>2019-03-29T21:51:10Z</time>
      </trkpt>
      <trkpt lat="45.17694" lon="4.28342">
        <ele>882.891</ele>
        <time>2019-03-29T21:51:30Z</time>
      </trkpt>
      <trkpt lat="45.1757" lon="4.28122">
        <ele>879.073</ele>
        <time>2019-03-29T21:51:50Z</time>
      </trkpt>
      <trkpt lat="45.17444" lon="4.28066">
        <ele>889.138</ele>
        <time>2019-03-29T21:52:10Z</time>
      </trkpt>
      <trkpt lat="45.17227" lon="4.27794">
        <ele>894.476</ele>
        <time>2019-03-29T21:52:30Z</time>
      </trkpt>
      <trkpt lat="45.17221" lon="4.2775">
        <ele>895.09</ele>
        <time>2019-03-29T21:52:50Z</time>
      </trkpt>
      <trkpt lat="45.17074" lon="4.27782">
        <ele>900.119</ele>
        <time>2019-03-29T21:53:10Z</time>
      </trkpt>
      <trkpt lat="45.17018" lon="4.27738">
        <ele>903.808</ele>
        <time>2019-03-29T21:53:30Z</time>
      </trkpt>
      <trkpt lat="45.1685" lon="4.27694">
        <ele>904.541</ele>
        <time>2019-03-29T21:53:50Z</time>
      </trkpt>
      <trkpt lat="45.16717" lon="4.27702">
        <ele>907.945</ele>
        <time>2019-03-29T21:54:10Z</time>
      </trkpt>
      <trkpt lat="45.16634" lon="4.27774">
        <ele>913.75</ele>
        <time>2019-03-29T21:54:30Z</time>
      </trkpt>
      <trkpt lat="45.16488" lon="4.27886">
        <ele>907.891</ele>
        <time>2019-03-29T21:54:50Z</time>
      </trkpt>
      <trkpt lat="45.16415" lon="4.28022">
        <ele>906.89</ele>
        <time>2019-03-29T21:55:10Z</time>
      </trkpt>
      <trkpt lat="45.16207" lon="4.28076">
        <ele>894.54</ele>
        <time>2019-03-29T21:55:30Z</time>
      </trkpt>
      <trkpt lat="45.16124" lon="4.28174">
        <ele>887.592</ele>
        <time>2019-03-29T21:55:50Z</time>
      </trkpt>
      <trkpt lat="45.16008" lon="4.28188">
        <ele>874.857</ele>
        <time>2019-03-29T21:56:10Z</time>
      </trkpt>
      <trkpt lat="45.15939" lon="4.28184">
        <ele>867.748</ele>
        <time>2019-03-29T21:56:30Z</time>
      </trkpt>
      <trkpt lat="45.15911" lon="4.2824">
        <ele>868.761</ele>
        <time>2019-03-29T21:56:50Z</time>
      </trkpt>
      <trkpt lat="45.15849" lon="4.28286">
        <ele>863.417</ele>
        <time>2019-03-29T21:57:10Z</time>
      </trkpt>
      <trkpt lat="45.15777" lon="4.2826">
        <ele>854.308</ele>
        <time>2019-03-29T21:57:30Z</time>
      </trkpt>
      <trkpt lat="45.15677" lon="4.28246">
        <ele>846.658</ele>
        <time>2019-03-29T21:57:50Z</time>
      </trkpt>
      <trkpt lat="45.15595" lon="4.28216">
        <ele>839.232</ele>
        <time>2019-03-29T21:58:10Z</time>
      </trkpt>
      <trkpt lat="45.15521" lon="4.28284">
        <ele>844.847</ele>
        <time>2019-03-29T21:58:30Z</time>
      </trkpt>
      <trkpt lat="45.15449" lon="4.28272">
        <ele>836.568</ele>
        <time>2019-03-29T21:58:50Z</time>
      </trkpt>
      <trkpt lat="45.15418" lon="4.28228">
        <ele>834.477</ele>
        <time>2019-03-29T21:59:10Z</time>
      </trkpt>
      <trkpt lat="45.15389" lon="4.2824">
        <ele>838.727</ele>
        <time>2019-03-29T21:59:30Z</time>
      </trkpt>
      <trkpt lat="45.15384" lon="4.28352">
        <ele>849.729</ele>
        <time>2019-03-29T21:59:50Z</time>
      </trkpt>
      <trkpt lat="45.15305" lon="4.28432">
        <ele>870.464</ele>
        <time>2019-03-29T22:00:10Z</time>
      </trkpt>
      <trkpt lat="45.15274" lon="4.28448">
        <ele>867.591</ele>
        <time>2019-03-29T22:00:30Z</time>
      </trkpt>
      <trkpt lat="45.15221" lon="4.28545">
        <ele>875.081</ele>
        <time>2019-03-29T22:00:50Z</time>
      </trkpt>
      <trkpt lat="45.15178" lon="4.28677">
        <ele>878.019</ele>
        <time>2019-03-29T22:01:10Z</time>
      </trkpt>
      <trkpt lat="45.15154" lon="4.28725">
        <ele>880.308</ele>
        <time>2019-03-29T22:01:30Z</time>
      </trkpt>
      <trkpt lat="45.15146" lon="4.28773">
        <ele>884.523</ele>
        <time>2019-03-29T22:01:50Z</time>
      </trkpt>
      <trkpt lat="45.15103" lon="4.28783">
        <ele>885.127</ele>
        <time>2019-03-29T22:02:10Z</time>
      </trkpt>
      <trkpt lat="45.14986" lon="4.28755">
        <ele>877.682</ele>
        <time>2019-03-29T22:02:30Z</time>
      </trkpt>
      <trkpt lat="45.14916" lon="4.28837">
        <ele>869.313</ele>
        <time>2019-03-29T22:02:50Z</time>
      </trkpt>
      <trkpt lat="45.14825" lon="4.28823">
        <ele>870.962</ele>
        <time>2019-03-29T22:03:10Z</time>
      </trkpt>
      <trkpt lat="45.14733" lon="4.28901">
        <ele>875.842</ele>
        <time>2019-03-29T22:03:30Z</time>
      </trkpt>
      <trkpt lat="45.14709" lon="4.28807">
        <ele>877.384</ele>
        <time>2019-03-29T22:03:50Z</time>
      </trkpt>
      <trkpt lat="45.14694" lon="4.28777">
        <ele>881.179</ele>
        <time>2019-03-29T22:04:10Z</time>
      </trkpt>
      <trkpt lat="45.1468" lon="4.28713">
        <ele>882.592</ele>
        <time>2019-03-29T22:04:30Z</time>
      </trkpt>
      <trkpt lat="45.14643" lon="4.2869">
        <ele>875.973</ele>
        <time>2019-03-29T22:04:50Z</time>
      </trkpt>
      <trkpt lat="45.14653" lon="4.28639">
        <ele>871.02</ele>
        <time>2019-03-29T22:05:10Z</time>
      </trkpt>
      <trkpt lat="45.14635" lon="4.28584">
        <ele>877.108</ele>
        <time>2019-03-29T22:05:30Z</time>
      </trkpt>
      <trkpt lat="45.14644" lon="4.28548">
        <ele>876.583</ele>
        <time>2019-03-29T22:05:50Z</time>
      </trkpt>
      <trkpt lat="45.14607" lon="4.28537">
        <ele>889.777</ele>
        <time>2019-03-29T22:06:10Z</time>
      </trkpt>
      <trkpt lat="45.14585" lon="4.28453">
        <ele>887.432</ele>
        <time>2019-03-29T22:06:30Z</time>
      </trkpt>
      <trkpt lat="45.14561" lon="4.28455">
        <ele>888.983</ele>
        <time>2019-03-29T22:06:50Z</time>
      </trkpt>
      <trkpt lat="45.1454" lon="4.28479">
        <ele>891.942</ele>
        <time>2019-03-29T22:07:10Z</time>
      </trkpt>
      <trkpt lat="45.14516" lon="4.28483">
        <ele>891.162</ele>
        <time>2019-03-29T22:07:30Z</time>
      </trkpt>
      <trkpt lat="45.1444" lon="4.2853">
        <ele>885.044</ele>
        <time>2019-03-29T22:07:50Z</time>
      </trkpt>
      <trkpt lat="45.14376" lon="4.28506">
        <ele>884.919</ele>
        <time>2019-03-29T22:08:10Z</time>
      </trkpt>
      <trkpt lat="45.14272" lon="4.28509">
        <ele>888.173</ele>
        <time>2019-03-29T22:08:30Z</time>
      </trkpt>
      <trkpt lat="45.14201" lon="4.28436">
        <ele>886.185</ele>
        <time>2019-03-29T22:08:50Z</time>
      </trkpt>
      <trkpt lat="45.14105" lon="4.28397">
        <ele>887.113</ele>
        <time>2019-03-29T22:09:10Z</time>
      </trkpt>
      <trkpt lat="45.14069" lon="4.28397">
        <ele>886.408</ele>
        <time>2019-03-29T22:09:30Z</time>
      </trkpt>
      <trkpt lat="45.14029" lon="4.28358">
        <ele>883.281</ele>
        <time>2019-03-29T22:09:50Z</time>
      </trkpt>
      <trkpt lat="45.13993" lon="4.28354">
        <ele>883.715</ele>
        <time>2019-03-29T22:10:10Z</time>
      </trkpt>
      <trkpt lat="45.13947" lon="4.28365">
        <ele>881.62</ele>
        <time>2019-03-29T22:10:30Z</time>
      </trkpt>
      <trkpt lat="45.13802" lon="4.28352">
        <ele>858.061</ele>
        <time>2019-03-29T22:10:50Z</time>
      </trkpt>
      <trkpt lat="45.13786" lon="4.28393">
        <ele>855.01</ele>
        <time>2019-03-29T22:11:10Z</time>
      </trkpt>
      <trkpt lat="45.13666" lon="4.28543">
        <ele>856.49</ele>
        <time>2019-03-29T22:11:30Z</time>
      </trkpt>
      <trkpt lat="45.13462" lon="4.2858">
        <ele>842.992</ele>
        <time>2019-03-29T22:11:50Z</time>
      </trkpt>
      <trkpt lat="45.13424" lon="4.28562">
        <ele>835.997</ele>
        <time>2019-03-29T22:12:10Z</time>
      </trkpt>
      <trkpt lat="45.13355" lon="4.2858">
        <ele>830.493</ele>
        <time>2019-03-29T22:12:30Z</time>
      </trkpt>
      <trkpt lat="45.13252" lon="4.28545">
        <ele>848.665</ele>
        <time>2019-03-29T22:12:50Z</time>
      </trkpt>
      <trkpt lat="45.13089" lon="4.28388">
        <ele>826.721</ele>
        <time>2019-03-29T22:13:10Z</time>
      </trkpt>
      <trkpt lat="45.1303" lon="4.28373">
        <ele>824.508</ele>
        <time>2019-03-29T22:13:30Z</time>
      </trkpt>
      <trkpt lat="45.12943" lon="4.28399">
        <ele>827.813</ele>
        <time>2019-03-29T22:13:50Z</time>
      </trkpt>
      <trkpt lat="45.12824" lon="4.28492">
        <ele>843.737</ele>
        <time>2019-03-29T22:14:10Z</time>
      </trkpt>
      <trkpt lat="45.12818" lon="4.2849">
        <ele>844.782</ele>
        <time>2019-03-29T22:14:30Z</time>
      </trkpt>
      <trkpt lat="45.12587" lon="4.28518">
        <ele>865.423</ele>
        <time>2019-03-29T22:14:50Z</time>
      </trkpt>
      <trkpt lat="45.12367" lon="4.28749">
        <ele>868.692</ele>
        <time>2019-03-29T22:15:10Z</time>
      </trkpt>
      <trkpt lat="45.12237" lon="4.28779">
        <ele>862.042</ele>
        <time>2019-03-29T22:15:30Z</time>
      </trkpt>
      <trkpt lat="45.12099" lon="4.28829">
        <ele>852.174</ele>
        <time>2019-03-29T22:15:50Z</time>
      </trkpt>
      <trkpt lat="45.12014" lon="4.28792">
        <ele>846.329</ele>
        <time>2019-03-29T22:16:10Z</time>
      </trkpt>
      <trkpt lat="45.11878" lon="4.28754">
        <ele>832.465</ele>
        <time>2019-03-29T22:16:30Z</time>
      </trkpt>
      <trkpt lat="45.1184" lon="4.28732">
        <ele>832.668</ele>
        <time>2019-03-29T22:16:50Z</time>
      </trkpt>
      <trkpt lat="45.11748" lon="4.28715">
        <ele>833.814</ele>
        <time>2019-03-29T22:17:10Z</time>
      </trkpt>
      <trkpt lat="45.11751" lon="4.28775">
        <ele>834.908</ele>
        <time>2019-03-29T22:17:30Z</time>
      </trkpt>
      <trkpt lat="45.11725" lon="4.28852">
        <ele>841.51</ele>
        <time>2019-03-29T22:17:50Z</time>
      </trkpt>
      <trkpt lat="45.11634" lon="4.28844">
        <ele>843.664</ele>
        <time>2019-03-29T22:18:10Z</time>
      </trkpt>
      <trkpt lat="45.11583" lon="4.28938">
        <ele>852.119</ele>
        <time>2019-03-29T22:18:30Z</time>
      </trkpt>
      <trkpt lat="45.11528" lon="4.28874">
        <ele>843.94</ele>
        <time>2019-03-29T22:18:50Z</time>
      </trkpt>
      <trkpt lat="45.11504" lon="4.28874">
        <ele>844.859</ele>
        <time>2019-03-29T22:19:10Z</time>
      </trkpt>
      <trkpt lat="45.11469" lon="4.28696">
        <ele>838.969</ele>
        <time>2019-03-29T22:19:30Z</time>
      </trkpt>
      <trkpt lat="45.11507" lon="4.2864">
        <ele>832.071</ele>
        <time>2019-03-29T22:19:50Z</time>
      </trkpt>
      <trkpt lat="45.11483" lon="4.28556">
        <ele>833.866</ele>
        <time>2019-03-29T22:20:10Z</time>
      </trkpt>
      <trkpt lat="45.11507" lon="4.28342">
        <ele>834.921</ele>
        <time>2019-03-29T22:20:30Z</time>
      </trkpt>
      <trkpt lat="45.11539" lon="4.28254">
        <ele>832.341</ele>
        <time>2019-03-29T22:20:50Z</time>
      </trkpt>
      <trkpt lat="45.11548" lon="4.2818">
        <ele>832.905</ele>
        <time>2019-03-29T22:21:10Z</time>
      </trkpt>
      <trkpt lat="45.11606" lon="4.28184">
        <ele>833.308</ele>
        <time>2019-03-29T22:21:30Z</time>
      </trkpt>
      <trkpt lat="45.11647" lon="4.27653">
        <ele>850.836</ele>
        <time>2019-03-29T22:21:50Z</time>
      </trkpt>
      <trkpt lat="45.11637" lon="4.27591">
        <ele>853.89</ele>
        <time>2019-03-29T22:22:10Z</time>
      </trkpt>
      <trkpt lat="45.11648" lon="4.27554">
        <ele>856.575</ele>
        <time>2019-03-29T22:22:30Z</time>
      </trkpt>
      <trkpt lat="45.1166" lon="4.27322">
        <ele>878.016</ele>
        <time>2019-03-29T22:22:50Z</time>
      </trkpt>
      <trkpt lat="45.11636" lon="4.27237">
        <ele>881.745</ele>
        <time>2019-03-29T22:23:10Z</time>
      </trkpt>
      <trkpt lat="45.11581" lon="4.27119">
        <ele>893.065</ele>
        <time>2019-03-29T22:23:30Z</time>
      </trkpt>
      <trkpt lat="45.11506" lon="4.26898">
        <ele>909.567</ele>
        <time>2019-03-29T22:23:50Z</time>
      </trkpt>
      <trkpt lat="45.11542" lon="4.2679">
        <ele>917.352</ele>
        <time>2019-03-29T22:24:10Z</time>
      </trkpt>
      <trkpt lat="45.11547" lon="4.26683">
        <ele>918.746</ele>
        <time>2019-03-29T22:24:30Z</time>
      </trkpt>
      <trkpt lat="45.1153" lon="4.26627">
        <ele>917.188</ele>
        <time>2019-03-29T22:24:50Z</time>
      </trkpt>
      <trkpt lat="45.11519" lon="4.26552">
        <ele>909.916</ele>
        <time>2019-03-29T22:25:10Z</time>
      </trkpt>
      <trkpt lat="45.11509" lon="4.26436">
        <ele>898.608</ele>
        <time>2019-03-29T22:25:30Z</time>
      </trkpt>
      <trkpt lat="45.11435" lon="4.26393">
        <ele>893.258</ele>
        <time>2019-03-29T22:25:50Z</time>
      </trkpt>
      <trkpt lat="45.11444" lon="4.26355">
        <ele>890.872</ele>
        <time>2019-03-29T22:26:10Z</time>
      </trkpt>
      <trkpt lat="45.11521" lon="4.26243">
        <ele>887.697</ele>
        <time>2019-03-29T22:26:30Z</time>
      </trkpt>
      <trkpt lat="45.11519" lon="4.26011">
        <ele>900.388</ele>
        <time>2019-03-29T22:26:50Z</time>
      </trkpt>
      <trkpt lat="45.11542" lon="4.25943">
        <ele>905.037</ele>
        <time>2019-03-29T22:27:10Z</time>
      </trkpt>
      <trkpt lat="45.11397" lon="4.25973">
        <ele>910.857</ele>
        <time>2019-03-29T22:27:30Z</time>
      </trkpt>
      <trkpt lat="45.11365" lon="4.25921">
        <ele>915.539</ele>
        <time>2019-03-29T22:27:50Z</time>
      </trkpt>
      <trkpt lat="45.1135" lon="4.25788">
        <ele>920.754</ele>
        <time>2019-03-29T22:28:10Z</time>
      </trkpt>
      <trkpt lat="45.11191" lon="4.25477">
        <ele>939.312</ele>
        <time>2019-03-29T22:28:30Z</time>
      </trkpt>
      <trkpt lat="45.11153" lon="4.25299">
        <ele>943.432</ele>
        <time>2019-03-29T22:28:50Z</time>
      </trkpt>
      <trkpt lat="45.11147" lon="4.25172">
        <ele>941.905</ele>
        <time>2019-03-29T22:29:10Z</time>
      </trkpt>
      <trkpt lat="45.11132" lon="4.25128">
        <ele>941.408</ele>
        <time>2019-03-29T22:29:30Z</time>
      </trkpt>
      <trkpt lat="45.11048" lon="4.24969">
        <ele>934.715</ele>
        <time>2019-03-29T22:29:50Z</time>
      </trkpt>
      <trkpt lat="45.10992" lon="4.24964">
        <ele>947.179</ele>
        <time>2019-03-29T22:30:10Z</time>
      </trkpt>
      <trkpt lat="45.10888" lon="4.24887">
        <ele>956.944</ele>
        <time>2019-03-29T22:30:30Z</time>
      </trkpt>
      <trkpt lat="45.1086" lon="4.24858">
        <ele>957.715</ele>
        <time>2019-03-29T22:30:50Z</time>
      </trkpt>
      <trkpt lat="45.10735" lon="4.24877">
        <ele>957.564</ele>
        <time>2019-03-29T22:31:10Z</time>
      </trkpt>
      <trkpt lat="45.10723" lon="4.24535">
        <ele>944.274</ele>
        <time>2019-03-29T22:31:30Z</time>
      </trkpt>
      <trkpt lat="45.10681" lon="4.24391">
        <ele>949.976</ele>
        <time>2019-03-29T22:31:50Z</time>
      </trkpt>
      <trkpt lat="45.10683" lon="4.24361">
        <ele>951.081</ele>
        <time>2019-03-29T22:32:10Z</time>
      </trkpt>
      <trkpt lat="45.1064" lon="4.24303">
        <ele>952.182</ele>
        <time>2019-03-29T22:32:30Z</time>
      </trkpt>
      <trkpt lat="45.10599" lon="4.24226">
        <ele>951.143</ele>
        <time>2019-03-29T22:32:50Z</time>
      </trkpt>
      <trkpt lat="45.10583" lon="4.24136">
        <ele>948.817</ele>
        <time>2019-03-29T22:33:10Z</time>
      </trkpt>
      <trkpt lat="45.10541" lon="4.24119">
        <ele>945.908</ele>
        <time>2019-03-29T22:33:30Z</time>
      </trkpt>
      <trkpt lat="45.10402" lon="4.23986">
        <ele>931.142</ele>
        <time>2019-03-29T22:33:50Z</time>
      </trkpt>
      <trkpt lat="45.10453" lon="4.23856">
        <ele>917.566</ele>
        <time>2019-03-29T22:34:10Z</time>
      </trkpt>
      <trkpt lat="45.10426" lon="4.23768">
        <ele>912.081</ele>
        <time>2019-03-29T22:34:30Z</time>
      </trkpt>
      <trkpt lat="45.10419" lon="4.23675">
        <ele>911.922</ele>
        <time>2019-03-29T22:34:50Z</time>
      </trkpt>
      <trkpt lat="45.10394" lon="4.23631">
        <ele>913.671</ele>
        <time>2019-03-29T22:35:10Z</time>
      </trkpt>
      <trkpt lat="45.10578" lon="4.23545">
        <ele>903.281</ele>
        <time>2019-03-29T22:35:30Z</time>
      </trkpt>
      <trkpt lat="45.10564" lon="4.23462">
        <ele>904.223</ele>
        <time>2019-03-29T22:35:50Z</time>
      </trkpt>
      <trkpt lat="45.10535" lon="4.23428">
        <ele>905.838</ele>
        <time>2019-03-29T22:36:10Z</time>
      </trkpt>
      <trkpt lat="45.10534" lon="4.23409">
        <ele>905.947</ele>
        <time>2019-03-29T22:36:30Z</time>
      </trkpt>
      <trkpt lat="45.10491" lon="4.23346">
        <ele>909.929</ele>
        <time>2019-03-29T22:36:50Z</time>
      </trkpt>
      <trkpt lat="45.10474" lon="4.23256">
        <ele>914.621</ele>
        <time>2019-03-29T22:37:10Z</time>
      </trkpt>
      <trkpt lat="45.10429" lon="4.23175">
        <ele>920.408</ele>
        <time>2019-03-29T22:37:30Z</time>
      </trkpt>
      <trkpt lat="45.10444" lon="4.23085">
        <ele>930.858</ele>
        <time>2019-03-29T22:37:50Z</time>
      </trkpt>
      <trkpt lat="45.10359" lon="4.22769">
        <ele>962.422</ele>
        <time>2019-03-29T22:38:10Z</time>
      </trkpt>
      <trkpt lat="45.10231" lon="4.22555">
        <ele>962.687</ele>
        <time>2019-03-29T22:38:30Z</time>
      </trkpt>
      <trkpt lat="45.10188" lon="4.22473">
        <ele>963.218</ele>
        <time>2019-03-29T22:38:50Z</time>
      </trkpt>
      <trkpt lat="45.10164" lon="4.2228">
        <ele>971.077</ele>
        <time>2019-03-29T22:39:10Z</time>
      </trkpt>
      <trkpt lat="45.10152" lon="4.22123">
        <ele>980.047</ele>
        <time>2019-03-29T22:39:30Z</time>
      </trkpt>
      <trkpt lat="45.10114" lon="4.21911">
        <ele>1000.529</ele>
        <time>2019-03-29T22:39:50Z</time>
      </trkpt>
      <trkpt lat="45.10056" lon="4.21716">
        <ele>1008.524</ele>
        <time>2019-03-29T22:40:10Z</time>
      </trkpt>
      <trkpt lat="45.09959" lon="4.21518">
        <ele>1013.999</ele>
        <time>2019-03-29T22:40:30Z</time>
      </trkpt>
      <trkpt lat="45.09916" lon="4.21462">
        <ele>1017.107</ele>
        <time>2019-03-29T22:40:50Z</time>
      </trkpt>
      <trkpt lat="45.0984" lon="4.21422">
        <ele>1019.127</ele>
        <time>2019-03-29T22:41:10Z</time>
      </trkpt>
      <trkpt lat="45.09782" lon="4.21361">
        <ele>1018.008</ele>
        <time>2019-03-29T22:41:30Z</time>
      </trkpt>
      <trkpt lat="45.09743" lon="4.21254">
        <ele>1018.263</ele>
        <time>2019-03-29T22:41:50Z</time>
      </trkpt>
      <trkpt lat="45.09691" lon="4.21196">
        <ele>1018.387</ele>
        <time>2019-03-29T22:42:10Z</time>
      </trkpt>
      <trkpt lat="45.09632" lon="4.21149">
        <ele>1021.032</ele>
        <time>2019-03-29T22:42:30Z</time>
      </trkpt>
      <trkpt lat="45.09576" lon="4.21035">
        <ele>1022.043</ele>
        <time>2019-03-29T22:42:50Z</time>
      </trkpt>
      <trkpt lat="45.09591" lon="4.20896">
        <ele>1028.112</ele>
        <time>2019-03-29T22:43:10Z</time>
      </trkpt>
      <trkpt lat="45.09644" lon="4.20707">
        <ele>1043.372</ele>
        <time>2019-03-29T22:43:30Z</time>
      </trkpt>
      <trkpt lat="45.09669" lon="4.20651">
        <ele>1048.174</ele>
        <time>2019-03-29T22:43:50Z</time>
      </trkpt>
      <trkpt lat="45.09669" lon="4.20651">
        <ele>1048.199</ele>
        <time>2019-03-29T22:44:10Z</time>
      </trkpt>
      <trkpt lat="45.09676" lon="4.20567">
        <ele>1050.668</ele>
        <time>2019-03-29T22:44:30Z</time>
      </trkpt>
      <trkpt lat="45.0964" lon="4.20496">
        <ele>1046.142</ele>
        <time>2019-03-29T22:44:50Z</time>
      </trkpt>
      <trkpt lat="45.09623" lon="4.20494">
        <ele>1045.026</ele>
        <time>2019-03-29T22:45:10Z</time>
      </trkpt>
      <trkpt lat="45.0961" lon="4.20434">
        <ele>1044.908</ele>
        <time>2019-03-29T22:45:30Z</time>
      </trkpt>
      <trkpt lat="45.09487" lon="4.20372">
        <ele>1046.26</ele>
        <time>2019-03-29T22:45:50Z</time>
      </trkpt>
      <trkpt lat="45.09348" lon="4.20252">
        <ele>1041.524</ele>
        <time>2019-03-29T22:46:10Z</time>
      </trkpt>
      <trkpt lat="45.09348" lon="4.20252">
        <ele>1041.529</ele>
        <time>2019-03-29T22:46:30Z</time>
      </trkpt>
      <trkpt lat="45.09369" lon="4.20106">
        <ele>1042.43</ele>
        <time>2019-03-29T22:46:50Z</time>
      </trkpt>
      <trkpt lat="45.09529" lon="4.20044">
        <ele>1026.479</ele>
        <time>2019-03-29T22:47:10Z</time>
      </trkpt>
      <trkpt lat="45.09558" lon="4.19994">
        <ele>1021.359</ele>
        <time>2019-03-29T22:47:30Z</time>
      </trkpt>
      <trkpt lat="45.09593" lon="4.1983">
        <ele>1015.721</ele>
        <time>2019-03-29T22:47:50Z</time>
      </trkpt>
      <trkpt lat="45.09594" lon="4.19653">
        <ele>1013.346</ele>
        <time>2019-03-29T22:48:10Z</time>
      </trkpt>
      <trkpt lat="45.09564" lon="4.19505">
        <ele>1005.763</ele>
        <time>2019-03-29T22:48:30Z</time>
      </trkpt>
      <trkpt lat="45.09507" lon="4.19091">
        <ele>1016.844</ele>
        <time>2019-03-29T22:48:50Z</time>
      </trkpt>
      <trkpt lat="45.09471" lon="4.18969">
        <ele>1023.418</ele>
        <time>2019-03-29T22:49:10Z</time>
      </trkpt>
      <trkpt lat="45.09479" lon="4.18866">
        <ele>1031.008</ele>
        <time>2019-03-29T22:49:30Z</time>
      </trkpt>
      <trkpt lat="45.09531" lon="4.18738">
        <ele>1033.92</ele>
        <time>2019-03-29T22:49:50Z</time>
      </trkpt>
      <trkpt lat="45.09391" lon="4.18746">
        <ele>1041.134</ele>
        <time>2019-03-29T22:50:10Z</time>
      </trkpt>
      <trkpt lat="45.09364" lon="4.18782">
        <ele>1046.979</ele>
        <time>2019-03-29T22:50:30Z</time>
      </trkpt>
      <trkpt lat="45.09329" lon="4.18788">
        <ele>1050.18</ele>
        <time>2019-03-29T22:50:50Z</time>
      </trkpt>
      <trkpt lat="45.09272" lon="4.18731">
        <ele>1045.079</ele>
        <time>2019-03-29T22:51:10Z</time>
      </trkpt>
      <trkpt lat="45.09222" lon="4.18694">
        <ele>1045.039</ele>
        <time>2019-03-29T22:51:30Z</time>
      </trkpt>
      <trkpt lat="45.09134" lon="4.18494">
        <ele>1036.121</ele>
        <time>2019-03-29T22:51:50Z</time>
      </trkpt>
      <trkpt lat="45.0909" lon="4.18422">
        <ele>1034.986</ele>
        <time>2019-03-29T22:52:10Z</time>
      </trkpt>
      <trkpt lat="45.09017" lon="4.18334">
        <ele>1032.023</ele>
        <time>2019-03-29T22:52:30Z</time>
      </trkpt>
      <trkpt lat="45.08923" lon="4.18282">
        <ele>1028.083</ele>
        <time>2019-03-29T22:52:50Z</time>
      </trkpt>
      <trkpt lat="45.0887" lon="4.18203">
        <ele>1023.411</ele>
        <time>2019-03-29T22:53:10Z</time>
      </trkpt>
      <trkpt lat="45.08846" lon="4.18143">
        <ele>1020.508</ele>
        <time>2019-03-29T22:53:30Z</time>
      </trkpt>
      <trkpt lat="45.08792" lon="4.18072">
        <ele>1014.266</ele>
        <time>2019-03-29T22:53:50Z</time>
      </trkpt>
      <trkpt lat="45.0862" lon="4.17907">
        <ele>996.26</ele>
        <time>2019-03-29T22:54:10Z</time>
      </trkpt>
      <trkpt lat="45.08561" lon="4.17868">
        <ele>993.655</ele>
        <time>2019-03-29T22:54:30Z</time>
      </trkpt>
      <trkpt lat="45.08536" lon="4.17821">
        <ele>990.176</ele>
        <time>2019-03-29T22:54:50Z</time>
      </trkpt>
      <trkpt lat="45.08537" lon="4.17638">
        <ele>989.435</ele>
        <time>2019-03-29T22:55:10Z</time>
      </trkpt>
      <trkpt lat="45.08567" lon="4.17591">
        <ele>992.655</ele>
        <time>2019-03-29T22:55:30Z</time>
      </trkpt>
      <trkpt lat="45.08648" lon="4.17585">
        <ele>998.577</ele>
        <time>2019-03-29T22:55:50Z</time>
      </trkpt>
      <trkpt lat="45.08798" lon="4.17462">
        <ele>1018.012</ele>
        <time>2019-03-29T22:56:10Z</time>
      </trkpt>
      <trkpt lat="45.08817" lon="4.17396">
        <ele>1027.536</ele>
        <time>2019-03-29T22:56:30Z</time>
      </trkpt>
      <trkpt lat="45.08904" lon="4.17276">
        <ele>1034.517</ele>
        <time>2019-03-29T22:56:50Z</time>
      </trkpt>
      <trkpt lat="45.08875" lon="4.17211">
        <ele>1032.318</ele>
        <time>2019-03-29T22:57:10Z</time>
      </trkpt>
      <trkpt lat="45.08822" lon="4.1716">
        <ele>1033.208</ele>
        <time>2019-03-29T22:57:30Z</time>
      </trkpt>
      <trkpt lat="45.08758" lon="4.17166">
        <ele>1030.387</ele>
        <time>2019-03-29T22:57:50Z</time>
      </trkpt>
      <trkpt lat="45.0871" lon="4.1713">
        <ele>1024.461</ele>
        <time>2019-03-29T22:58:10Z</time>
      </trkpt>
      <trkpt lat="45.08639" lon="4.17128">
        <ele>1016.046</ele>
        <time>2019-03-29T22:58:30Z</time>
      </trkpt>
      <trkpt lat="45.08599" lon="4.1708">
        <ele>1011.827</ele>
        <time>2019-03-29T22:58:50Z</time>
      </trkpt>
      <trkpt lat="45.08513" lon="4.17059">
        <ele>1008.076</ele>
        <time>2019-03-29T22:59:10Z</time>
      </trkpt>
      <trkpt lat="45.08393" lon="4.16977">
        <ele>1022.886</ele>
        <time>2019-03-29T22:59:30Z</time>
      </trkpt>
      <trkpt lat="45.08286" lon="4.16849">
        <ele>1030.028</ele>
        <time>2019-03-29T22:59:50Z</time>
      </trkpt>
      <trkpt lat="45.08217" lon="4.1666">
        <ele>1030.783</ele>
        <time>2019-03-29T23:00:10Z</time>
      </trkpt>
      <trkpt lat="45.08193" lon="4.1655">
        <ele>1040.644</ele>
        <time>2019-03-29T23:00:30Z</time>
      </trkpt>
      <trkpt lat="45.08161" lon="4.16507">
        <ele>1047.205</ele>
        <time>2019-03-29T23:00:50Z</time>
      </trkpt>
      <trkpt lat="45.07976" lon="4.16224">
        <ele>1062.415</ele>
        <time>2019-03-29T23:01:10Z</time>
      </trkpt>
      <trkpt lat="45.07949" lon="4.16102">
        <ele>1071.608</ele>
        <time>2019-03-29T23:01:30Z</time>
      </trkpt>
      <trkpt lat="45.07948" lon="4.15937">
        <ele>1080.438</ele>
        <time>2019-03-29T23:01:50Z</time>
      </trkpt>
      <trkpt lat="45.07917" lon="4.15819">
        <ele>1089.542</ele>
        <time>2019-03-29T23:02:10Z</time>
      </trkpt>
      <trkpt lat="45.07837" lon="4.15651">
        <ele>1095.647</ele>
        <time>2019-03-29T23:02:30Z</time>
      </trkpt>
      <trkpt lat="45.07701" lon="4.15417">
        <ele>1094.818</ele>
        <time>2019-03-29T23:02:50Z</time>
      </trkpt>
      <trkpt lat="45.07657" lon="4.15203">
        <ele>1100.047</ele>
        <time>2019-03-29T23:03:10Z</time>
      </trkpt>
      <trkpt lat="45.07614" lon="4.15098">
        <ele>1101.237</ele>
        <time>2019-03-29T23:03:30Z</time>
      </trkpt>
      <trkpt lat="45.0764" lon="4.14945">
        <ele>1101.959</ele>
        <time>2019-03-29T23:03:50Z</time>
      </trkpt>
      <trkpt lat="45.07623" lon="4.14855">
        <ele>1106.864</ele>
        <time>2019-03-29T23:04:10Z</time>
      </trkpt>
      <trkpt lat="45.07592" lon="4.14787">
        <ele>1109.929</ele>
        <time>2019-03-29T23:04:30Z</time>
      </trkpt>
      <trkpt lat="45.07545" lon="4.14739">
        <ele>1115.2</ele>
        <time>2019-03-29T23:04:50Z</time>
      </trkpt>
      <trkpt lat="45.07476" lon="4.14724">
        <ele>1118.82</ele>
        <time>2019-03-29T23:05:10Z</time>
      </trkpt>
      <trkpt lat="45.0746" lon="4.14624">
        <ele>1129.408</ele>
        <time>2019-03-29T23:05:30Z</time>
      </trkpt>
      <trkpt lat="45.07475" lon="4.14568">
        <ele>1136.476</ele>
        <time>2019-03-29T23:05:50Z</time>
      </trkpt>
      <trkpt lat="45.07513" lon="4.14465">
        <ele>1142.98</ele>
        <time>2019-03-29T23:06:10Z</time>
      </trkpt>
      <trkpt lat="45.07537" lon="4.14325">
        <ele>1146.065</ele>
        <time>2019-03-29T23:06:30Z</time>
      </trkpt>
      <trkpt lat="45.07528" lon="4.14261">
        <ele>1153.886</ele>
        <time>2019-03-29T23:06:50Z</time>
      </trkpt>
      <trkpt lat="45.07505" lon="4.14173">
        <ele>1161.685</ele>
        <time>2019-03-29T23:07:10Z</time>
      </trkpt>
      <trkpt lat="45.07496" lon="4.141">
        <ele>1168.845</ele>
        <time>2019-03-29T23:07:30Z</time>
      </trkpt>
      <trkpt lat="45.07469" lon="4.13926">
        <ele>1181.277</ele>
        <time>2019-03-29T23:07:50Z</time>
      </trkpt>
      <trkpt lat="45.07473" lon="4.1336">
        <ele>1221.052</ele>
        <time>2019-03-29T23:08:10Z</time>
      </trkpt>
      <trkpt lat="45.07455" lon="4.13257">
        <ele>1227.439</ele>
        <time>2019-03-29T23:08:30Z</time>
      </trkpt>
      <trkpt lat="45.07319" lon="4.12851">
        <ele>1250.701</ele>
        <time>2019-03-29T23:08:50Z</time>
      </trkpt>
      <trkpt lat="45.07229" lon="4.12632">
        <ele>1267.521</ele>
        <time>2019-03-29T23:09:10Z</time>
      </trkpt>
      <trkpt lat="45.07192" lon="4.12611">
        <ele>1270.108</ele>
        <time>2019-03-29T23:09:30Z</time>
      </trkpt>
      <trkpt lat="45.07138" lon="4.12407">
        <ele>1277.117</ele>
        <time>2019-03-29T23:09:50Z</time>
      </trkpt>
      <trkpt lat="45.07029" lon="4.1221">
        <ele>1281.131</ele>
        <time>2019-03-29T23:10:10Z</time>
      </trkpt>
      <trkpt lat="45.06964" lon="4.12025">
        <ele>1281.656</ele>
        <time>2019-03-29T23:10:30Z</time>
      </trkpt>
      <trkpt lat="45.06958" lon="4.11931">
        <ele>1283.517</ele>
        <time>2019-03-29T23:10:50Z</time>
      </trkpt>
      <trkpt lat="45.06938" lon="4.11838">
        <ele>1276.736</ele>
        <time>2019-03-29T23:11:10Z</time>
      </trkpt>
      <trkpt lat="45.0691" lon="4.11793">
        <ele>1268.046</ele>
        <time>2019-03-29T23:11:30Z</time>
      </trkpt>
      <trkpt lat="45.06929" lon="4.11589">
        <ele>1258.748</ele>
        <time>2019-03-29T23:11:50Z</time>
      </trkpt>
      <trkpt lat="45.06929" lon="4.11589">
        <ele>1258.783</ele>
        <time>2019-03-29T23:12:10Z</time>
      </trkpt>
      <trkpt lat="45.06914" lon="4.11572">
        <ele>1252.595</ele>
        <time>2019-03-29T23:12:30Z</time>
      </trkpt>
      <trkpt lat="45.0691" lon="4.11385">
        <ele>1236.449</ele>
        <time>2019-03-29T23:12:50Z</time>
      </trkpt>
      <trkpt lat="45.06948" lon="4.11278">
        <ele>1231.923</ele>
        <time>2019-03-29T23:13:10Z</time>
      </trkpt>
      <trkpt lat="45.06958" lon="4.11154">
        <ele>1222.008</ele>
        <time>2019-03-29T23:13:30Z</time>
      </trkpt>
      <trkpt lat="45.06938" lon="4.11072">
        <ele>1214.873</ele>
        <time>2019-03-29T23:13:50Z</time>
      </trkpt>
      <trkpt lat="45.0696" lon="4.11027">
        <ele>1211.587</ele>
        <time>2019-03-29T23:14:10Z</time>
      </trkpt>
      <trkpt lat="45.06938" lon="4.11016">
        <ele>1211.452</ele>
        <time>2019-03-29T23:14:30Z</time>
      </trkpt>
      <trkpt lat="45.06899" lon="4.10903">
        <ele>1201.273</ele>
        <time>2019-03-29T23:14:50Z</time>
      </trkpt>
      <trkpt lat="45.06914" lon="4.10877">
        <ele>1196.462</ele>
        <time>2019-03-29T23:15:10Z</time>
      </trkpt>
      <trkpt lat="45.06916" lon="4.10808">
        <ele>1194.212</ele>
        <time>2019-03-29T23:15:30Z</time>
      </trkpt>
      <trkpt lat="45.06954" lon="4.10628">
        <ele>1174.414</ele>
        <time>2019-03-29T23:15:50Z</time>
      </trkpt>
      <trkpt lat="45.07014" lon="4.106">
        <ele>1172.979</ele>
        <time>2019-03-29T23:16:10Z</time>
      </trkpt>
      <trkpt lat="45.07082" lon="4.10486">
        <ele>1160.621</ele>
        <time>2019-03-29T23:16:30Z</time>
      </trkpt>
      <trkpt lat="45.07098" lon="4.10409">
        <ele>1155.541</ele>
        <time>2019-03-29T23:16:50Z</time>
      </trkpt>
      <trkpt lat="45.07164" lon="4.10284">
        <ele>1152.705</ele>
        <time>2019-03-29T23:17:10Z</time>
      </trkpt>
      <trkpt lat="45.0719" lon="4.10212">
        <ele>1150.508</ele>
        <time>2019-03-29T23:17:30Z</time>
      </trkpt>
      <trkpt lat="45.0719" lon="4.10212">
        <ele>1150.566</ele>
        <time>2019-03-29T23:17:50Z</time>
      </trkpt>
      <trkpt lat="45.07269" lon="4.10098">
        <ele>1149.71</ele>
        <time>2019-03-29T23:18:10Z</time>
      </trkpt>
      <trkpt lat="45.07157" lon="4.10124">
        <ele>1137.725</ele>
        <time>2019-03-29T23:18:30Z</time>
      </trkpt>
      <trkpt lat="45.07067" lon="4.1022">
        <ele>1139.116</ele>
        <time>2019-03-29T23:18:50Z</time>
      </trkpt>
      <trkpt lat="45.06879" lon="4.10158">
        <ele>1138.375</ele>
        <time>2019-03-29T23:19:10Z</time>
      </trkpt>
      <trkpt lat="45.06773" lon="4.10192">
        <ele>1135.525</ele>
        <time>2019-03-29T23:19:30Z</time>
      </trkpt>
      <trkpt lat="45.06682" lon="4.10195">
        <ele>1128.727</ele>
        <time>2019-03-29T23:19:50Z</time>
      </trkpt>
      <trkpt lat="45.06629" lon="4.10235">
        <ele>1122.742</ele>
        <time>2019-03-29T23:20:10Z</time>
      </trkpt>
      <trkpt lat="45.06514" lon="4.10276">
        <ele>1107.145</ele>
        <time>2019-03-29T23:20:30Z</time>
      </trkpt>
      <trkpt lat="45.06479" lon="4.10321">
        <ele>1101.447</ele>
        <time>2019-03-29T23:20:50Z</time>
      </trkpt>
      <trkpt lat="45.06443" lon="4.1021">
        <ele>1096.811</ele>
        <time>2019-03-29T23:21:10Z</time>
      </trkpt>
      <trkpt lat="45.06369" lon="4.10212">
        <ele>1087.308</ele>
        <time>2019-03-29T23:21:30Z</time>
      </trkpt>
      <trkpt lat="45.06356" lon="4.1028">
        <ele>1082.268</ele>
        <time>2019-03-29T23:21:50Z</time>
      </trkpt>
      <trkpt lat="45.06373" lon="4.10351">
        <ele>1074.632</ele>
        <time>2019-03-29T23:22:10Z</time>
      </trkpt>
      <trkpt lat="45.06463" lon="4.1045">
        <ele>1075.097</ele>
        <time>2019-03-29T23:22:30Z</time>
      </trkpt>
      <trkpt lat="45.0646" lon="4.10484">
        <ele>1071.888</ele>
        <time>2019-03-29T23:22:50Z</time>
      </trkpt>
      <trkpt lat="45.06366" lon="4.10613">
        <ele>1064.427</ele>
        <time>2019-03-29T23:23:10Z</time>
      </trkpt>
      <trkpt lat="45.06306" lon="4.10658">
        <ele>1060.417</ele>
        <time>2019-03-29T23:23:30Z</time>
      </trkpt>
      <trkpt lat="45.06258" lon="4.10705">
        <ele>1051.579</ele>
        <time>2019-03-29T23:23:50Z</time>
      </trkpt>
      <trkpt lat="45.06172" lon="4.10714">
        <ele>1048.134</ele>
        <time>2019-03-29T23:24:10Z</time>
      </trkpt>
      <trkpt lat="45.06103" lon="4.10742">
        <ele>1057.716</ele>
        <time>2019-03-29T23:24:30Z</time>
      </trkpt>
      <trkpt lat="45.0589" lon="4.10658">
        <ele>1054.876</ele>
        <time>2019-03-29T23:24:50Z</time>
      </trkpt>
      <trkpt lat="45.05865" lon="4.10613">
        <ele>1048.413</ele>
        <time>2019-03-29T23:25:10Z</time>
      </trkpt>
      <trkpt lat="45.05835" lon="4.10618">
        <ele>1048.708</ele>
        <time>2019-03-29T23:25:30Z</time>
      </trkpt>
      <trkpt lat="45.05799" lon="4.10636">
        <ele>1048.185</ele>
        <time>2019-03-29T23:25:50Z</time>
      </trkpt>
      <trkpt lat="45.05789" lon="4.10599">
        <ele>1042.839</ele>
        <time>2019-03-29T23:26:10Z</time>
      </trkpt>
      <trkpt lat="45.05672" lon="4.10552">
        <ele>1029.114</ele>
        <time>2019-03-29T23:26:30Z</time>
      </trkpt>
      <trkpt lat="45.05606" lon="4.10356">
        <ele>1003.275</ele>
        <time>2019-03-29T23:26:50Z</time>
      </trkpt>
      <trkpt lat="45.05564" lon="4.10292">
        <ele>995.434</ele>
        <time>2019-03-29T23:27:10Z</time>
      </trkpt>
      <trkpt lat="45.05503" lon="4.10245">
        <ele>991.224</ele>
        <time>2019-03-29T23:27:30Z</time>
      </trkpt>
      <trkpt lat="45.05455" lon="4.10149">
        <ele>979.526</ele>
        <time>2019-03-29T23:27:50Z</time>
      </trkpt>
      <trkpt lat="45.05394" lon="4.10112">
        <ele>980.731</ele>
        <time>2019-03-29T23:28:10Z</time>
      </trkpt>
      <trkpt lat="45.05352" lon="4.09878">
        <ele>970.543</ele>
        <time>2019-03-29T23:28:30Z</time>
      </trkpt>
      <trkpt lat="45.0529" lon="4.09731">
        <ele>987.664</ele>
        <time>2019-03-29T23:28:50Z</time>
      </trkpt>
      <trkpt lat="45.05252" lon="4.09653">
        <ele>1005.61</ele>
        <time>2019-03-29T23:29:10Z</time>
      </trkpt>
      <trkpt lat="45.05179" lon="4.09561">
        <ele>1017.708</ele>
        <time>2019-03-29T23:29:30Z</time>
      </trkpt>
      <trkpt lat="45.051" lon="4.09481">
        <ele>1020.058</ele>
        <time>2019-03-29T23:29:50Z</time>
      </trkpt>
      <trkpt lat="45.05004" lon="4.09425">
        <ele>1029.882</ele>
        <time>2019-03-29T23:30:10Z</time>
      </trkpt>
      <trkpt lat="45.04935" lon="4.09423">
        <ele>1034.357</ele>
        <time>2019-03-29T23:30:30Z</time>
      </trkpt>
      <trkpt lat="45.04773" lon="4.09259">
        <ele>1018.168</ele>
        <time>2019-03-29T23:30:50Z</time>
      </trkpt>
      <trkpt lat="45.04718" lon="4.09256">
        <ele>1014.857</ele>
        <time>2019-03-29T23:31:10Z</time>
      </trkpt>
      <trkpt lat="45.04669" lon="4.09215">
        <ele>1009.957</ele>
        <time>2019-03-29T23:31:30Z</time>
      </trkpt>
      <trkpt lat="45.0463" lon="4.092">
        <ele>1012.469</ele>
        <time>2019-03-29T23:31:50Z</time>
      </trkpt>
      <trkpt lat="45.04584" lon="4.09168">
        <ele>1013.114</ele>
        <time>2019-03-29T23:32:10Z</time>
      </trkpt>
      <trkpt lat="45.04518" lon="4.09157">
        <ele>1014.743</ele>
        <time>2019-03-29T23:32:30Z</time>
      </trkpt>
      <trkpt lat="45.0451" lon="4.09114">
        <ele>1008.664</ele>
        <time>2019-03-29T23:32:50Z</time>
      </trkpt>
      <trkpt lat="45.04453" lon="4.09069">
        <ele>1003.41</ele>
        <time>2019-03-29T23:33:10Z</time>
      </trkpt>
      <trkpt lat="45.04439" lon="4.09037">
        <ele>1000.708</ele>
        <time>2019-03-29T23:33:30Z</time>
      </trkpt>
      <trkpt lat="45.04389" lon="4.08986">
        <ele>991.938</ele>
        <time>2019-03-29T23:33:50Z</time>
      </trkpt>
      <trkpt lat="45.0434" lon="4.08962">
        <ele>984.432</ele>
        <time>2019-03-29T23:34:10Z</time>
      </trkpt>
      <trkpt lat="45.04254" lon="4.08874">
        <ele>969.117</ele>
        <time>2019-03-29T23:34:30Z</time>
      </trkpt>
      <trkpt lat="45.04096" lon="4.08874">
        <ele>953.018</ele>
        <time>2019-03-29T23:34:50Z</time>
      </trkpt>
      <trkpt lat="45.04066" lon="4.08848">
        <ele>947.017</ele>
        <time>2019-03-29T23:35:10Z</time>
      </trkpt>
      <trkpt lat="45.04049" lon="4.08807">
        <ele>943.667</ele>
        <time>2019-03-29T23:35:30Z</time>
      </trkpt>
      <trkpt lat="45.03967" lon="4.08805">
        <ele>941.559</ele>
        <time>2019-03-29T23:35:50Z</time>
      </trkpt>
      <trkpt lat="45.03917" lon="4.08749">
        <ele>945.944</ele>
        <time>2019-03-29T23:36:10Z</time>
      </trkpt>
      <trkpt lat="45.03869" lon="4.08726">
        <ele>949.659</ele>
        <time>2019-03-29T23:36:30Z</time>
      </trkpt>
      <trkpt lat="45.03851" lon="4.08807">
        <ele>954.803</ele>
        <time>2019-03-29T23:36:50Z</time>
      </trkpt>
      <trkpt lat="45.03793" lon="4.08876">
        <ele>965.723</ele>
        <time>2019-03-29T23:37:10Z</time>
      </trkpt>
      <trkpt lat="45.03788" lon="4.08919">
        <ele>971.008</ele>
        <time>2019-03-29T23:37:30Z</time>
      </trkpt>
      <trkpt lat="45.03766" lon="4.0893">
        <ele>976.069</ele>
        <time>2019-03-29T23:37:50Z</time>
      </trkpt>
      <trkpt lat="45.0376" lon="4.09069">
        <ele>984.733</ele>
        <time>2019-03-29T23:38:10Z</time>
      </trkpt>
      <trkpt lat="45.03722" lon="4.09149">
        <ele>988.848</ele>
        <time>2019-03-29T23:38:30Z</time>
      </trkpt>
      <trkpt lat="45.03705" lon="4.09149">
        <ele>992.289</ele>
        <time>2019-03-29T23:38:50Z</time>
      </trkpt>
      <trkpt lat="45.0365" lon="4.091">
        <ele>992.288</ele>
        <time>2019-03-29T23:39:10Z</time>
      </trkpt>
      <trkpt lat="45.03587" lon="4.091">
        <ele>992.158</ele>
        <time>2019-03-29T23:39:30Z</time>
      </trkpt>
      <trkpt lat="45.03501" lon="4.09078">
        <ele>980.71</ele>
        <time>2019-03-29T23:39:50Z</time>
      </trkpt>
      <trkpt lat="45.03514" lon="4.09041">
        <ele>979.075</ele>
        <time>2019-03-29T23:40:10Z</time>
      </trkpt>
      <trkpt lat="45.03485" lon="4.08842">
        <ele>959.749</ele>
        <time>2019-03-29T23:40:30Z</time>
      </trkpt>
      <trkpt lat="45.0344" lon="4.0882">
        <ele>954.802</ele>
        <time>2019-03-29T23:40:50Z</time>
      </trkpt>
      <trkpt lat="45.03403" lon="4.08831">
        <ele>954.022</ele>
        <time>2019-03-29T23:41:10Z</time>
      </trkpt>
      <trkpt lat="45.0337" lon="4.08831">
        <ele>953.908</ele>
        <time>2019-03-29T23:41:30Z</time>
      </trkpt>
      <trkpt lat="45.03255" lon="4.08861">
        <ele>943.768</ele>
        <time>2019-03-29T23:41:50Z</time>
      </trkpt>
      <trkpt lat="45.03173" lon="4.08758">
        <ele>931.092</ele>
        <time>2019-03-29T23:42:10Z</time>
      </trkpt>
      <trkpt lat="45.03077" lon="4.08752">
        <ele>922.497</ele>
        <time>2019-03-29T23:42:30Z</time>
      </trkpt>
      <trkpt lat="45.03021" lon="4.08616">
        <ele>912.258</ele>
        <time>2019-03-29T23:42:50Z</time>
      </trkpt>
      <trkpt lat="45.03024" lon="4.08586">
        <ele>909.697</ele>
        <time>2019-03-29T23:43:10Z</time>
      </trkpt>
      <trkpt lat="45.02983" lon="4.08479">
        <ele>911.077</ele>
        <time>2019-03-29T23:43:30Z</time>
      </trkpt>
      <trkpt lat="45.0298" lon="4.08346">
        <ele>917.729</ele>
        <time>2019-03-29T23:43:50Z</time>
      </trkpt>
      <trkpt lat="45.02835" lon="4.0823">
        <ele>930.724</ele>
        <time>2019-03-29T23:44:10Z</time>
      </trkpt>
      <trkpt lat="45.02852" lon="4.08077">
        <ele>944.239</ele>
        <time>2019-03-29T23:44:30Z</time>
      </trkpt>
      <trkpt lat="45.02852" lon="4.08047">
        <ele>946.601</ele>
        <time>2019-03-29T23:44:50Z</time>
      </trkpt>
      <trkpt lat="45.02863" lon="4.07994">
        <ele>951.921</ele>
        <time>2019-03-29T23:45:10Z</time>
      </trkpt>
      <trkpt lat="45.02861" lon="4.07893">
        <ele>965.408</ele>
        <time>2019-03-29T23:45:30Z</time>
      </trkpt>
      <trkpt lat="45.02868" lon="4.07856">
        <ele>973.177</ele>
        <time>2019-03-29T23:45:50Z</time>
      </trkpt>
      <trkpt lat="45.02844" lon="4.07837">
        <ele>977.251</ele>
        <time>2019-03-29T23:46:10Z</time>
      </trkpt>
      <trkpt lat="45.02873" lon="4.07803">
        <ele>988.566</ele>
        <time>2019-03-29T23:46:30Z</time>
      </trkpt>
      <trkpt lat="45.02842" lon="4.07767">
        <ele>989.457</ele>
        <time>2019-03-29T23:46:50Z</time>
      </trkpt>
      <trkpt lat="45.02843" lon="4.07693">
        <ele>987.586</ele>
        <time>2019-03-29T23:47:10Z</time>
      </trkpt>
      <trkpt lat="45.02903" lon="4.07627">
        <ele>984.436</ele>
        <time>2019-03-29T23:47:30Z</time>
      </trkpt>
      <trkpt lat="45.02951" lon="4.07607">
        <ele>980.298</ele>
        <time>2019-03-29T23:47:50Z</time>
      </trkpt>
      <trkpt lat="45.0299" lon="4.07577">
        <ele>969.763</ele>
        <time>2019-03-29T23:48:10Z</time>
      </trkpt>
      <trkpt lat="45.03016" lon="4.07583">
        <ele>968.573</ele>
        <time>2019-03-29T23:48:30Z</time>
      </trkpt>
      <trkpt lat="45.03041" lon="4.07565">
        <ele>957.485</ele>
        <time>2019-03-29T23:48:50Z</time>
      </trkpt>
      <trkpt lat="45.03075" lon="4.07581">
        <ele>953.113</ele>
        <time>2019-03-29T23:49:10Z</time>
      </trkpt>
      <trkpt lat="45.03102" lon="4.07585">
        <ele>945.308</ele>
        <time>2019-03-29T23:49:30Z</time>
      </trkpt>
      <trkpt lat="45.03122" lon="4.07483">
        <ele>929.531</ele>
        <time>2019-03-29T23:49:50Z</time>
      </trkpt>
      <trkpt lat="45.03198" lon="4.07473">
        <ele>922.025</ele>
        <time>2019-03-29T23:50:10Z</time>
      </trkpt>
      <trkpt lat="45.03236" lon="4.07419">
        <ele>919.63</ele>
        <time>2019-03-29T23:50:30Z</time>
      </trkpt>
      <trkpt lat="45.03248" lon="4.07349">
        <ele>915.911</ele>
        <time>2019-03-29T23:50:50Z</time>
      </trkpt>
      <trkpt lat="45.03292" lon="4.07349">
        <ele>909.12</ele>
        <time>2019-03-29T23:51:10Z</time>
      </trkpt>
      <trkpt lat="45.03337" lon="4.07291">
        <ele>908.18</ele>
        <time>2019-03-29T23:51:30Z</time>
      </trkpt>
      <trkpt lat="45.03392" lon="4.07261">
        <ele>901.152</ele>
        <time>2019-03-29T23:51:50Z</time>
      </trkpt>
      <trkpt lat="45.03449" lon="4.07255">
        <ele>895.747</ele>
        <time>2019-03-29T23:52:10Z</time>
      </trkpt>
      <trkpt lat="45.03393" lon="4.0717">
        <ele>898.581</ele>
        <time>2019-03-29T23:52:30Z</time>
      </trkpt>
      <trkpt lat="45.03402" lon="4.07096">
        <ele>897.561</ele>
        <time>2019-03-29T23:52:50Z</time>
      </trkpt>
      <trkpt lat="45.03401" lon="4.07006">
        <ele>893.317</ele>
        <time>2019-03-29T23:53:10Z</time>
      </trkpt>
      <trkpt lat="45.03553" lon="4.06848">
        <ele>868.308</ele>
        <time>2019-03-29T23:53:30Z</time>
      </trkpt>
      <trkpt lat="45.03644" lon="4.06834">
        <ele>858.562</ele>
        <time>2019-03-29T23:53:50Z</time>
      </trkpt>
      <trkpt lat="45.03642" lon="4.06706">
        <ele>846.886</ele>
        <time>2019-03-29T23:54:10Z</time>
      </trkpt>
      <trkpt lat="45.0365" lon="4.06618">
        <ele>840.491</ele>
        <time>2019-03-29T23:54:30Z</time>
      </trkpt>
      <trkpt lat="45.03638" lon="4.06546">
        <ele>837.792</ele>
        <time>2019-03-29T23:54:50Z</time>
      </trkpt>
      <trkpt lat="45.03618" lon="4.06388">
        <ele>830.481</ele>
        <time>2019-03-29T23:55:10Z</time>
      </trkpt>
      <trkpt lat="45.03593" lon="4.06298">
        <ele>822.851</ele>
        <time>2019-03-29T23:55:30Z</time>
      </trkpt>
      <trkpt lat="45.03484" lon="4.06302">
        <ele>834.113</ele>
        <time>2019-03-29T23:55:50Z</time>
      </trkpt>
      <trkpt lat="45.03453" lon="4.06223">
        <ele>843.378</ele>
        <time>2019-03-29T23:56:10Z</time>
      </trkpt>
      <trkpt lat="45.03495" lon="4.06151">
        <ele>833.274</ele>
        <time>2019-03-29T23:56:30Z</time>
      </trkpt>
      <trkpt lat="45.03562" lon="4.06093">
        <ele>826.756</ele>
        <time>2019-03-29T23:56:50Z</time>
      </trkpt>
      <trkpt lat="45.03638" lon="4.06069">
        <ele>821.021</ele>
        <time>2019-03-29T23:57:10Z</time>
      </trkpt>
      <trkpt lat="45.03646" lon="4.06067">
        <ele>820.508</ele>
        <time>2019-03-29T23:57:30Z</time>
      </trkpt>
      <trkpt lat="45.03678" lon="4.05359">
        <ele>817.811</ele>
        <time>2019-03-29T23:57:50Z</time>
      </trkpt>
      <trkpt lat="45.03664" lon="4.05185">
        <ele>821.615</ele>
        <time>2019-03-29T23:58:10Z</time>
      </trkpt>
      <trkpt lat="45.03688" lon="4.049">
        <ele>819.39</ele>
        <time>2019-03-29T23:58:30Z</time>
      </trkpt>
      <trkpt lat="45.03694" lon="4.04582">
        <ele>811.091</ele>
        <time>2019-03-29T23:58:50Z</time>
      </trkpt>
      <trkpt lat="45.03716" lon="4.04436">
        <ele>806.65</ele>
        <time>2019-03-29T23:59:10Z</time>
      </trkpt>
      <trkpt lat="45.03708" lon="4.0416">
        <ele>797.72</ele>
        <time>2019-03-29T23:59:30Z</time>
      </trkpt>
      <trkpt lat="45.03719" lon="4.03969">
        <ele>791.332</ele>
        <time>2019-03-29T23:59:50Z</time>
      </trkpt>
      <trkpt lat="45.03776" lon="4.03844">
        <ele>777.337</ele>
        <time>2019-03-30T00:00:10Z</time>
      </trkpt>
      <trkpt lat="45.03776" lon="4.03776">
        <ele>773.177</ele>
        <time>2019-03-30T00:00:30Z</time>
      </trkpt>
      <trkpt lat="45.03801" lon="4.03722">
        <ele>772.061</ele>
        <time>2019-03-30T00:00:50Z</time>
      </trkpt>
      <trkpt lat="45.03766" lon="4.03677">
        <ele>771.627</ele>
        <time>2019-03-30T00:01:10Z</time>
      </trkpt>
      <trkpt lat="45.03793" lon="4.03658">
        <ele>772.608</ele>
        <time>2019-03-30T00:01:30Z</time>
      </trkpt>
      <trkpt lat="45.03764" lon="4.03557">
        <ele>770.081</ele>
        <time>2019-03-30T00:01:50Z</time>
      </trkpt>
      <trkpt lat="45.03773" lon="4.03499">
        <ele>771.285</ele>
        <time>2019-03-30T00:02:10Z</time>
      </trkpt>
      <trkpt lat="45.03773" lon="4.03295">
        <ele>773.34</ele>
        <time>2019-03-30T00:02:30Z</time>
      </trkpt>
      <trkpt lat="45.03763" lon="4.03256">
        <ele>772.271</ele>
        <time>2019-03-30T00:02:50Z</time>
      </trkpt>
      <trkpt lat="45.03785" lon="4.03181">
        <ele>775.98</ele>
        <time>2019-03-30T00:03:10Z</time>
      </trkpt>
      <trkpt lat="45.03782" lon="4.03119">
        <ele>776.69</ele>
        <time>2019-03-30T00:03:30Z</time>
      </trkpt>
      <trkpt lat="45.03795" lon="4.03027">
        <ele>782.622</ele>
        <time>2019-03-30T00:03:50Z</time>
      </trkpt>
      <trkpt lat="45.03787" lon="4.02949">
        <ele>781.137</ele>
        <time>2019-03-30T00:04:10Z</time>
      </trkpt>
      <trkpt lat="45.03804" lon="4.0287">
        <ele>788.571</ele>
        <time>2019-03-30T00:04:30Z</time>
      </trkpt>
      <trkpt lat="45.03799" lon="4.02834">
        <ele>789.141</ele>
        <time>2019-03-30T00:04:50Z</time>
      </trkpt>
      <trkpt lat="45.03772" lon="4.0281">
        <ele>783.015</ele>
        <time>2019-03-30T00:05:10Z</time>
      </trkpt>
      <trkpt lat="45.03825" lon="4.02713">
        <ele>787.308</ele>
        <time>2019-03-30T00:05:30Z</time>
      </trkpt>
      <trkpt lat="45.03843" lon="4.02651">
        <ele>781.271</ele>
        <time>2019-03-30T00:05:50Z</time>
      </trkpt>
      <trkpt lat="45.04013" lon="4.02618">
        <ele>777.055</ele>
        <time>2019-03-30T00:06:10Z</time>
      </trkpt>
      <trkpt lat="45.03983" lon="4.0247">
        <ele>764.64</ele>
        <time>2019-03-30T00:06:30Z</time>
      </trkpt>
      <trkpt lat="45.0391" lon="4.0248">
        <ele>759.161</ele>
        <time>2019-03-30T00:06:50Z</time>
      </trkpt>
      <trkpt lat="45.03872" lon="4.02462">
        <ele>757.71</ele>
        <time>2019-03-30T00:07:10Z</time>
      </trkpt>
      <trkpt lat="45.03861" lon="4.02409">
        <ele>758.96</ele>
        <time>2019-03-30T00:07:30Z</time>
      </trkpt>
      <trkpt lat="45.03883" lon="4.02331">
        <ele>762.852</ele>
        <time>2019-03-30T00:07:50Z</time>
      </trkpt>
      <trkpt lat="45.03945" lon="4.01935">
        <ele>799.117</ele>
        <time>2019-03-30T00:08:10Z</time>
      </trkpt>
      <trkpt lat="45.03983" lon="4.01834">
        <ele>805.688</ele>
        <time>2019-03-30T00:08:30Z</time>
      </trkpt>
      <trkpt lat="45.04045" lon="4.01737">
        <ele>810.824</ele>
        <time>2019-03-30T00:08:50Z</time>
      </trkpt>
      <trkpt lat="45.04048" lon="4.01636">
        <ele>809.926</ele>
        <time>2019-03-30T00:09:10Z</time>
      </trkpt>
      <trkpt lat="45.03984" lon="4.01475">
        <ele>810.608</ele>
        <time>2019-03-30T00:09:30Z</time>
      </trkpt>
      <trkpt lat="45.0396" lon="4.01377">
        <ele>815.432</ele>
        <time>2019-03-30T00:09:50Z</time>
      </trkpt>
      <trkpt lat="45.03954" lon="4.01274">
        <ele>810.936</ele>
        <time>2019-03-30T00:10:10Z</time>
      </trkpt>
      <trkpt lat="45.03961" lon="4.01153">
        <ele>800.461</ele>
        <time>2019-03-30T00:10:30Z</time>
      </trkpt>
      <trkpt lat="45.03926" lon="4.00997">
        <ele>789.312</ele>
        <time>2019-03-30T00:10:50Z</time>
      </trkpt>
      <trkpt lat="45.03928" lon="4.00896">
        <ele>784.941</ele>
        <time>2019-03-30T00:11:10Z</time>
      </trkpt>
      <trkpt lat="45.03955" lon="4.00763">
        <ele>784.031</ele>
        <time>2019-03-30T00:11:30Z</time>
      </trkpt>
      <trkpt lat="45.03816" lon="4.00235">
        <ele>765.463</ele>
        <time>2019-03-30T00:11:50Z</time>
      </trkpt>
      <trkpt lat="45.03825" lon="4.00179">
        <ele>766.238</ele>
        <time>2019-03-30T00:12:10Z</time>
      </trkpt>
      <trkpt lat="45.03872" lon="4.00102">
        <ele>763.054</ele>
        <time>2019-03-30T00:12:30Z</time>
      </trkpt>
      <trkpt lat="45.03913" lon="3.99924">
        <ele>764.156</ele>
        <time>2019-03-30T00:12:50Z</time>
      </trkpt>
      <trkpt lat="45.03919" lon="3.99864">
        <ele>762.911</ele>
        <time>2019-03-30T00:13:10Z</time>
      </trkpt>
      <trkpt lat="45.04016" lon="3.99611">
        <ele>751.008</ele>
        <time>2019-03-30T00:13:30Z</time>
      </trkpt>
      <trkpt lat="45.04057" lon="3.99486">
        <ele>744.599</ele>
        <time>2019-03-30T00:13:50Z</time>
      </trkpt>
      <trkpt lat="45.04081" lon="3.99351">
        <ele>736.773</ele>
        <time>2019-03-30T00:14:10Z</time>
      </trkpt>
      <trkpt lat="45.04119" lon="3.99297">
        <ele>733.948</ele>
        <time>2019-03-30T00:14:30Z</time>
      </trkpt>
      <trkpt lat="45.04084" lon="3.99276">
        <ele>730.889</ele>
        <time>2019-03-30T00:14:50Z</time>
      </trkpt>
      <trkpt lat="45.03925" lon="3.99291">
        <ele>721.238</ele>
        <time>2019-03-30T00:15:10Z</time>
      </trkpt>
      <trkpt lat="45.03905" lon="3.99235">
        <ele>716.448</ele>
        <time>2019-03-30T00:15:30Z</time>
      </trkpt>
      <trkpt lat="45.0381" lon="3.99051">
        <ele>698.81</ele>
        <time>2019-03-30T00:15:50Z</time>
      </trkpt>
      <trkpt lat="45.03788" lon="3.99029">
        <ele>697.525</ele>
        <time>2019-03-30T00:16:10Z</time>
      </trkpt>
      <trkpt lat="45.0377" lon="3.98913">
        <ele>691.914</ele>
        <time>2019-03-30T00:16:30Z</time>
      </trkpt>
      <trkpt lat="45.03751" lon="3.9887">
        <ele>691.754</ele>
        <time>2019-03-30T00:16:50Z</time>
      </trkpt>
      <trkpt lat="45.03731" lon="3.98748">
        <ele>699.509</ele>
        <time>2019-03-30T00:17:10Z</time>
      </trkpt>
      <trkpt lat="45.03658" lon="3.98739">
        <ele>702.008</ele>
        <time>2019-03-30T00:17:30Z</time>
      </trkpt>
      <trkpt lat="45.03737" lon="3.98643">
        <ele>704.715</ele>
        <time>2019-03-30T00:17:50Z</time>
      </trkpt>
      <trkpt lat="45.03835" lon="3.98568">
        <ele>705.779</ele>
        <time>2019-03-30T00:18:10Z</time>
      </trkpt>
      <trkpt lat="45.03927" lon="3.98528">
        <ele>693.924</ele>
        <time>2019-03-30T00:18:30Z</time>
      </trkpt>
      <trkpt lat="45.03993" lon="3.98415">
        <ele>685.485</ele>
        <time>2019-03-30T00:18:50Z</time>
      </trkpt>
      <trkpt lat="45.04135" lon="3.98366">
        <ele>680.384</ele>
        <time>2019-03-30T00:19:10Z</time>
      </trkpt>
      <trkpt lat="45.04225" lon="3.98145">
        <ele>670.924</ele>
        <time>2019-03-30T00:19:30Z</time>
      </trkpt>
      <trkpt lat="45.04285" lon="3.97858">
        <ele>671.086</ele>
        <time>2019-03-30T00:19:50Z</time>
      </trkpt>
      <trkpt lat="45.0431" lon="3.97535">
        <ele>667.291</ele>
        <time>2019-03-30T00:20:10Z</time>
      </trkpt>
      <trkpt lat="45.04252" lon="3.974">
        <ele>666.449</ele>
        <time>2019-03-30T00:20:30Z</time>
      </trkpt>
      <trkpt lat="45.04142" lon="3.97396">
        <ele>665.002</ele>
        <time>2019-03-30T00:20:50Z</time>
      </trkpt>
      <trkpt lat="45.04066" lon="3.97366">
        <ele>666.022</ele>
        <time>2019-03-30T00:21:10Z</time>
      </trkpt>
      <trkpt lat="45.04031" lon="3.97398">
        <ele>666.008</ele>
        <time>2019-03-30T00:21:30Z</time>
      </trkpt>
      <trkpt lat="45.03972" lon="3.97396">
        <ele>668.088</ele>
        <time>2019-03-30T00:21:50Z</time>
      </trkpt>
      <trkpt lat="45.03961" lon="3.97448">
        <ele>666.192</ele>
        <time>2019-03-30T00:22:10Z</time>
      </trkpt>
      <trkpt lat="45.03919" lon="3.97463">
        <ele>665.047</ele>
        <time>2019-03-30T00:22:30Z</time>
      </trkpt>
      <trkpt lat="45.03884" lon="3.97272">
        <ele>667.068</ele>
        <time>2019-03-30T00:22:50Z</time>
      </trkpt>
      <trkpt lat="45.03804" lon="3.97259">
        <ele>667.047</ele>
        <time>2019-03-30T00:23:10Z</time>
      </trkpt>
      <trkpt lat="45.03869" lon="3.9695">
        <ele>673.387</ele>
        <time>2019-03-30T00:23:30Z</time>
      </trkpt>
      <trkpt lat="45.0391" lon="3.9684">
        <ele>672.599</ele>
        <time>2019-03-30T00:23:50Z</time>
      </trkpt>
      <trkpt lat="45.04036" lon="3.96639">
        <ele>671.734</ele>
        <time>2019-03-30T00:24:10Z</time>
      </trkpt>
      <trkpt lat="45.04257" lon="3.96493">
        <ele>673.747</ele>
        <time>2019-03-30T00:24:30Z</time>
      </trkpt>
      <trkpt lat="45.04342" lon="3.96358">
        <ele>672.829</ele>
        <time>2019-03-30T00:24:50Z</time>
      </trkpt>
      <trkpt lat="45.04545" lon="3.95954">
        <ele>679.221</ele>
        <time>2019-03-30T00:25:10Z</time>
      </trkpt>
      <trkpt lat="45.04627" lon="3.95808">
        <ele>675.308</ele>
        <time>2019-03-30T00:25:30Z</time>
      </trkpt>
      <trkpt lat="45.04645" lon="3.95701">
        <ele>679.588</ele>
        <time>2019-03-30T00:25:50Z</time>
      </trkpt>
      <trkpt lat="45.04692" lon="3.95587">
        <ele>683.162</ele>
        <time>2019-03-30T00:26:10Z</time>
      </trkpt>
      <trkpt lat="45.047" lon="3.95467">
        <ele>693.367</ele>
        <time>2019-03-30T00:26:30Z</time>
      </trkpt>
      <trkpt lat="45.04722" lon="3.95353">
        <ele>701.858</ele>
        <time>2019-03-30T00:26:50Z</time>
      </trkpt>
      <trkpt lat="45.04727" lon="3.95257">
        <ele>709.267</ele>
        <time>2019-03-30T00:27:10Z</time>
      </trkpt>
      <trkpt lat="45.04812" lon="3.95081">
        <ele>716.287</ele>
        <time>2019-03-30T00:27:30Z</time>
      </trkpt>
      <trkpt lat="45.04801" lon="3.95019">
        <ele>719.729</ele>
        <time>2019-03-30T00:27:50Z</time>
      </trkpt>
      <trkpt lat="45.04822" lon="3.95001">
        <ele>718.874</ele>
        <time>2019-03-30T00:28:10Z</time>
      </trkpt>
      <trkpt lat="45.04851" lon="3.94817">
        <ele>710.179</ele>
        <time>2019-03-30T00:28:30Z</time>
      </trkpt>
      <trkpt lat="45.0493" lon="3.94645">
        <ele>703.005</ele>
        <time>2019-03-30T00:28:50Z</time>
      </trkpt>
      <trkpt lat="45.0498" lon="3.94609">
        <ele>696.425</ele>
        <time>2019-03-30T00:29:10Z</time>
      </trkpt>
      <trkpt lat="45.05136" lon="3.94364">
        <ele>667.708</ele>
        <time>2019-03-30T00:29:30Z</time>
      </trkpt>
      <trkpt lat="45.05139" lon="3.94308">
        <ele>662.251</ele>
        <time>2019-03-30T00:29:50Z</time>
      </trkpt>
      <trkpt lat="45.05129" lon="3.94274">
        <ele>663.165</ele>
        <time>2019-03-30T00:30:10Z</time>
      </trkpt>
      <trkpt lat="45.05101" lon="3.94276">
        <ele>663.06</ele>
        <time>2019-03-30T00:30:30Z</time>
      </trkpt>
      <trkpt lat="45.05024" lon="3.94216">
        <ele>661.461</ele>
        <time>2019-03-30T00:30:50Z</time>
      </trkpt>
      <trkpt lat="45.04977" lon="3.93978">
        <ele>650.18</ele>
        <time>2019-03-30T00:31:10Z</time>
      </trkpt>
      <trkpt lat="45.04891" lon="3.93765">
        <ele>639.52</ele>
        <time>2019-03-30T00:31:30Z</time>
      </trkpt>
      <trkpt lat="45.04832" lon="3.93675">
        <ele>636.752</ele>
        <time>2019-03-30T00:31:50Z</time>
      </trkpt>
      <trkpt lat="45.04801" lon="3.9357">
        <ele>634.737</ele>
        <time>2019-03-30T00:32:10Z</time>
      </trkpt>
      <trkpt lat="45.04718" lon="3.93381">
        <ele>614.597</ele>
        <time>2019-03-30T00:32:30Z</time>
      </trkpt>
      <trkpt lat="45.04692" lon="3.93364">
        <ele>613.823</ele>
        <time>2019-03-30T00:32:50Z</time>
      </trkpt>
      <trkpt lat="45.04666" lon="3.93259">
        <ele>613.325</ele>
        <time>2019-03-30T00:33:10Z</time>
      </trkpt>
      <trkpt lat="45.04671" lon="3.93027">
        <ele>610.108</ele>
        <time>2019-03-30T00:33:30Z</time>
      </trkpt>
      <trkpt lat="45.04783" lon="3.92896">
        <ele>613.163</ele>
        <time>2019-03-30T00:33:50Z</time>
      </trkpt>
      <trkpt lat="45.04794" lon="3.92761">
        <ele>605.787</ele>
        <time>2019-03-30T00:34:10Z</time>
      </trkpt>
      <trkpt lat="45.04701" lon="3.92656">
        <ele>604.132</ele>
        <time>2019-03-30T00:34:30Z</time>
      </trkpt>
      <trkpt lat="45.0485" lon="3.92373">
        <ele>602.613</ele>
        <time>2019-03-30T00:34:50Z</time>
      </trkpt>
      <trkpt lat="45.04998" lon="3.92019">
        <ele>605.092</ele>
        <time>2019-03-30T00:35:10Z</time>
      </trkpt>
      <trkpt lat="45.05101" lon="3.91888">
        <ele>600.082</ele>
        <time>2019-03-30T00:35:30Z</time>
      </trkpt>
      <trkpt lat="45.05289" lon="3.9159">
        <ele>600.834</ele>
        <time>2019-03-30T00:35:50Z</time>
      </trkpt>
      <trkpt lat="45.05391" lon="3.91493">
        <ele>600.789</ele>
        <time>2019-03-30T00:36:10Z</time>
      </trkpt>
      <trkpt lat="45.05396" lon="3.91485">
        <ele>601.417</ele>
        <time>2019-03-30T00:36:30Z</time>
      </trkpt>
      <trkpt lat="45.05598" lon="3.91317">
        <ele>597.287</ele>
        <time>2019-03-30T00:36:50Z</time>
      </trkpt>
      <trkpt lat="45.05627" lon="3.91317">
        <ele>596.215</ele>
        <time>2019-03-30T00:37:10Z</time>
      </trkpt>
      <trkpt lat="45.05627" lon="3.9121">
        <ele>601.408</ele>
        <time>2019-03-30T00:37:30Z</time>
      </trkpt>
      <trkpt lat="45.05602" lon="3.91105">
        <ele>601.455</ele>
        <time>2019-03-30T00:37:50Z</time>
      </trkpt>
      <trkpt lat="45.05525" lon="3.90903">
        <ele>602.169</ele>
        <time>2019-03-30T00:38:10Z</time>
      </trkpt>
      <trkpt lat="45.05618" lon="3.90704">
        <ele>604.724</ele>
        <time>2019-03-30T00:38:30Z</time>
      </trkpt>
      <trkpt lat="45.05648" lon="3.90549">
        <ele>604.915</ele>
        <time>2019-03-30T00:38:50Z</time>
      </trkpt>
      <trkpt lat="45.05696" lon="3.9045">
        <ele>602.044</ele>
        <time>2019-03-30T00:39:10Z</time>
      </trkpt>
      <trkpt lat="45.05757" lon="3.90365">
        <ele>603.634</ele>
        <time>2019-03-30T00:39:30Z</time>
      </trkpt>
      <trkpt lat="45.05751" lon="3.90302">
        <ele>604.066</ele>
        <time>2019-03-30T00:39:50Z</time>
      </trkpt>
      <trkpt lat="45.05687" lon="3.90197">
        <ele>602.621</ele>
        <time>2019-03-30T00:40:10Z</time>
      </trkpt>
      <trkpt lat="45.05642" lon="3.90152">
        <ele>605.137</ele>
        <time>2019-03-30T00:40:30Z</time>
      </trkpt>
      <trkpt lat="45.05608" lon="3.90152">
        <ele>604.949</ele>
        <time>2019-03-30T00:40:50Z</time>
      </trkpt>
      <trkpt lat="45.05583" lon="3.9021">
        <ele>602.113</ele>
        <time>2019-03-30T00:41:10Z</time>
      </trkpt>
      <trkpt lat="45.0556" lon="3.90195">
        <ele>601.008</ele>
        <time>2019-03-30T00:41:30Z</time>
      </trkpt>
      <trkpt lat="45.05562" lon="3.90137">
        <ele>601.837</ele>
        <time>2019-03-30T00:41:50Z</time>
      </trkpt>
      <trkpt lat="45.05458" lon="3.90032">
        <ele>604.351</ele>
        <time>2019-03-30T00:42:10Z</time>
      </trkpt>
      <trkpt lat="45.05342" lon="3.90028">
        <ele>602.056</ele>
        <time>2019-03-30T00:42:30Z</time>
      </trkpt>
      <trkpt lat="45.05313" lon="3.90062">
        <ele>603.147</ele>
        <time>2019-03-30T00:42:50Z</time>
      </trkpt>
      <trkpt lat="45.05225" lon="3.90036">
        <ele>604.746</ele>
        <time>2019-03-30T00:43:10Z</time>
      </trkpt>
      <trkpt lat="45.05199" lon="3.90008">
        <ele>605.746</ele>
        <time>2019-03-30T00:43:30Z</time>
      </trkpt>
      <trkpt lat="45.05207" lon="3.89963">
        <ele>607.088</ele>
        <time>2019-03-30T00:43:50Z</time>
      </trkpt>
      <trkpt lat="45.05129" lon="3.89886">
        <ele>607.323</ele>
        <time>2019-03-30T00:44:10Z</time>
      </trkpt>
      <trkpt lat="45.05087" lon="3.898">
        <ele>606.229</ele>
        <time>2019-03-30T00:44:30Z</time>
      </trkpt>
      <trkpt lat="45.05057" lon="3.89714">
        <ele>609.3</ele>
        <time>2019-03-30T00:44:50Z</time>
      </trkpt>
      <trkpt lat="45.05062" lon="3.89609">
        <ele>609.92</ele>
        <time>2019-03-30T00:45:10Z</time>
      </trkpt>
      <trkpt lat="45.05083" lon="3.89489">
        <ele>608.608</ele>
        <time>2019-03-30T00:45:30Z</time>
      </trkpt>
      <trkpt lat="45.05074" lon="3.89401">
        <ele>606.976</ele>
        <time>2019-03-30T00:45:50Z</time>
      </trkpt>
      <trkpt lat="45.05037" lon="3.89408">
        <ele>606.11</ele>
        <time>2019-03-30T00:46:10Z</time>
      </trkpt>
    </trkseg>
  </trk>
</gpx>